<?xml version='1.0' encoding='UTF-8'?><gpx version="1.1" creator="JPX - https://github.com/jenetics/jpx" xmlns="http://www.topografix.com/GPX/1/1"><trk><trkseg><trkpt lat="45.38298462249269" lon="4.847180067224398"><ele>237.0</ele><time>2026-04-25T14:35:03Z</time></trkpt><trkpt lat="45.38298917847208" lon="4.847281642754446"><ele>237.0</ele><time>2026-04-25T14:35:06Z</time></trkpt><trkpt lat="45.38303661128947" lon="4.8471636137266705"><ele>237.0</ele><time>2026-04-25T14:35:18Z</time></trkpt><trkpt lat="45.3830439815216" lon="4.847011575530976"><ele>237.0</ele><time>2026-04-25T14:35:19Z</time></trkpt><trkpt lat="45.38307335551223" lon="4.846873207866643"><ele>237.0</ele><time>2026-04-25T14:35:20Z</time></trkpt><trkpt lat="45.38319107861585" lon="4.846747291364889"><ele>237.8</ele><time>2026-04-25T14:35:22Z</time></trkpt><trkpt lat="45.383238955896154" lon="4.846686011266154"><ele>238.6</ele><time>2026-04-25T14:35:24Z</time></trkpt><trkpt lat="45.38325055881109" lon="4.846562633368567"><ele>239.40000000000003</ele><time>2026-04-25T14:35:37Z</time></trkpt><trkpt lat="45.38316344704064" lon="4.846421592500824"><ele>240.20000000000002</ele><time>2026-04-25T14:35:38Z</time></trkpt><trkpt lat="45.383108766293624" lon="4.846292592388425"><ele>241.0</ele><time>2026-04-25T14:35:39Z</time></trkpt><trkpt lat="45.383038415101666" lon="4.846134676435114"><ele>240.75</ele><time>2026-04-25T14:35:40Z</time></trkpt><trkpt lat="45.38298159809162" lon="4.845993048303323"><ele>240.5</ele><time>2026-04-25T14:35:41Z</time></trkpt><trkpt lat="45.38291719989038" lon="4.845792462985041"><ele>240.25</ele><time>2026-04-25T14:35:42Z</time></trkpt><trkpt lat="45.38285272683049" lon="4.84560899776035"><ele>240.0</ele><time>2026-04-25T14:35:43Z</time></trkpt><trkpt lat="45.38281800445313" lon="4.845490717292632"><ele>240.0</ele><time>2026-04-25T14:35:44Z</time></trkpt><trkpt lat="45.38282365186089" lon="4.845394996032755"><ele>240.0</ele><time>2026-04-25T14:35:46Z</time></trkpt><trkpt lat="45.3828934919124" lon="4.845471386709912"><ele>240.0</ele><time>2026-04-25T14:35:49Z</time></trkpt><trkpt lat="45.38300393990288" lon="4.8446870069289725"><ele>240.66666666666669</ele><time>2026-04-25T14:35:50Z</time></trkpt><trkpt lat="45.3831636266059" lon="4.845123147660219"><ele>241.33333333333334</ele><time>2026-04-25T14:35:51Z</time></trkpt><trkpt lat="45.38324285685919" lon="4.84512691362627"><ele>242.0</ele><time>2026-04-25T14:35:52Z</time></trkpt><trkpt lat="45.383362965085325" lon="4.845141397056332"><ele>242.0</ele><time>2026-04-25T14:35:54Z</time></trkpt><trkpt lat="45.38371929207506" lon="4.845526603015116"><ele>242.0</ele><time>2026-04-25T14:35:58Z</time></trkpt><trkpt lat="45.38380104148659" lon="4.845555920071"><ele>242.14285714285714</ele><time>2026-04-25T14:35:59Z</time></trkpt><trkpt lat="45.38388584043211" lon="4.845526973272123"><ele>242.28571428571428</ele><time>2026-04-25T14:36:00Z</time></trkpt><trkpt lat="45.38396106676839" lon="4.845530554680528"><ele>242.42857142857142</ele><time>2026-04-25T14:36:01Z</time></trkpt><trkpt lat="45.384031694746746" lon="4.845524258400321"><ele>242.57142857142856</ele><time>2026-04-25T14:36:02Z</time></trkpt><trkpt lat="45.384101418836906" lon="4.845494943028621"><ele>242.71428571428572</ele><time>2026-04-25T14:36:03Z</time></trkpt><trkpt lat="45.38416980785353" lon="4.845486231417752"><ele>242.85714285714283</ele><time>2026-04-25T14:36:04Z</time></trkpt><trkpt lat="45.384233375058635" lon="4.845484296305036"><ele>243.0</ele><time>2026-04-25T14:36:05Z</time></trkpt><trkpt lat="45.38434370103001" lon="4.84541488308194"><ele>243.0</ele><time>2026-04-25T14:36:06Z</time></trkpt><trkpt lat="45.384428060915106" lon="4.845373291832884"><ele>243.0</ele><time>2026-04-25T14:36:07Z</time></trkpt><trkpt lat="45.38451412261855" lon="4.845341000024024"><ele>243.0</ele><time>2026-04-25T14:36:08Z</time></trkpt><trkpt lat="45.38459736093433" lon="4.845299541152748"><ele>243.0</ele><time>2026-04-25T14:36:09Z</time></trkpt><trkpt lat="45.384675260057705" lon="4.84525585725769"><ele>243.0</ele><time>2026-04-25T14:36:10Z</time></trkpt><trkpt lat="45.384752382018135" lon="4.845220161520487"><ele>243.0</ele><time>2026-04-25T14:36:11Z</time></trkpt><trkpt lat="45.38482089066512" lon="4.845199128399512"><ele>243.14285714285714</ele><time>2026-04-25T14:36:12Z</time></trkpt><trkpt lat="45.38489856507564" lon="4.845192081721575"><ele>243.28571428571428</ele><time>2026-04-25T14:36:13Z</time></trkpt><trkpt lat="45.38497022150519" lon="4.845215692528313"><ele>243.42857142857142</ele><time>2026-04-25T14:36:14Z</time></trkpt><trkpt lat="45.385031278513836" lon="4.84519134182502"><ele>243.57142857142856</ele><time>2026-04-25T14:36:15Z</time></trkpt><trkpt lat="45.385100544683716" lon="4.845157626615677"><ele>243.71428571428572</ele><time>2026-04-25T14:36:16Z</time></trkpt><trkpt lat="45.385178412597135" lon="4.845156086893297"><ele>243.85714285714283</ele><time>2026-04-25T14:36:17Z</time></trkpt><trkpt lat="45.38524562344896" lon="4.845138978614205"><ele>243.99999999999997</ele><time>2026-04-25T14:36:18Z</time></trkpt><trkpt lat="45.38530747058112" lon="4.845075511518146"><ele>244.39999999999998</ele><time>2026-04-25T14:36:19Z</time></trkpt><trkpt lat="45.38535578720854" lon="4.84499561702375"><ele>244.79999999999998</ele><time>2026-04-25T14:36:20Z</time></trkpt><trkpt lat="45.385423041107465" lon="4.844851440824662"><ele>245.20000000000002</ele><time>2026-04-25T14:36:22Z</time></trkpt><trkpt lat="45.38548466753277" lon="4.844729471410504"><ele>245.60000000000002</ele><time>2026-04-25T14:36:24Z</time></trkpt><trkpt lat="45.38555995929842" lon="4.8446187065943"><ele>246.0</ele><time>2026-04-25T14:36:26Z</time></trkpt><trkpt lat="45.385643160426795" lon="4.8445014403802515"><ele>246.0</ele><time>2026-04-25T14:36:28Z</time></trkpt><trkpt lat="45.385752363128205" lon="4.844422406601388"><ele>246.0</ele><time>2026-04-25T14:36:30Z</time></trkpt><trkpt lat="45.38581423249062" lon="4.844382809579"><ele>246.0</ele><time>2026-04-25T14:36:31Z</time></trkpt><trkpt lat="45.385868550133296" lon="4.844326242240262"><ele>246.0</ele><time>2026-04-25T14:36:32Z</time></trkpt><trkpt lat="45.38592591271446" lon="4.844262940710906"><ele>246.0</ele><time>2026-04-25T14:36:33Z</time></trkpt><trkpt lat="45.385983992788766" lon="4.844201518193105"><ele>246.0</ele><time>2026-04-25T14:36:34Z</time></trkpt><trkpt lat="45.386042523822866" lon="4.84413751477166"><ele>246.00000000000003</ele><time>2026-04-25T14:36:35Z</time></trkpt><trkpt lat="45.386107842229876" lon="4.844066923590297"><ele>246.0</ele><time>2026-04-25T14:36:36Z</time></trkpt><trkpt lat="45.386169651485005" lon="4.843991922839081"><ele>246.00000000000003</ele><time>2026-04-25T14:36:37Z</time></trkpt><trkpt lat="45.38622733687409" lon="4.843929703257376"><ele>246.00000000000003</ele><time>2026-04-25T14:36:38Z</time></trkpt><trkpt lat="45.386265891135636" lon="4.843845884666141"><ele>246.0</ele><time>2026-04-25T14:36:39Z</time></trkpt><trkpt lat="45.38631920241343" lon="4.843783196788091"><ele>246.00000000000003</ele><time>2026-04-25T14:36:40Z</time></trkpt><trkpt lat="45.38635354724611" lon="4.843699716752122"><ele>246.00000000000003</ele><time>2026-04-25T14:36:41Z</time></trkpt><trkpt lat="45.386369929841756" lon="4.843595568607861"><ele>246.33333333333334</ele><time>2026-04-25T14:36:42Z</time></trkpt><trkpt lat="45.38639179080003" lon="4.8434762239436004"><ele>246.66666666666669</ele><time>2026-04-25T14:36:43Z</time></trkpt><trkpt lat="45.38641371029688" lon="4.843360642057067"><ele>247.0</ele><time>2026-04-25T14:36:44Z</time></trkpt><trkpt lat="45.38644282253601" lon="4.8432405448745195"><ele>247.33333333333334</ele><time>2026-04-25T14:36:45Z</time></trkpt><trkpt lat="45.386474541157014" lon="4.843118645933696"><ele>247.66666666666669</ele><time>2026-04-25T14:36:46Z</time></trkpt><trkpt lat="45.386506576292675" lon="4.843001634616053"><ele>248.0</ele><time>2026-04-25T14:36:47Z</time></trkpt><trkpt lat="45.38653200444827" lon="4.842887410367338"><ele>248.2</ele><time>2026-04-25T14:36:48Z</time></trkpt><trkpt lat="45.38656909309808" lon="4.842768274236885"><ele>248.4</ele><time>2026-04-25T14:36:49Z</time></trkpt><trkpt lat="45.386607513412464" lon="4.8426469520491935"><ele>248.59999999999997</ele><time>2026-04-25T14:36:50Z</time></trkpt><trkpt lat="45.38664887374612" lon="4.842532501564093"><ele>248.79999999999998</ele><time>2026-04-25T14:36:51Z</time></trkpt><trkpt lat="45.386689278302285" lon="4.84241599379656"><ele>249.0</ele><time>2026-04-25T14:36:52Z</time></trkpt><trkpt lat="45.386731014062256" lon="4.842287718060908"><ele>249.0</ele><time>2026-04-25T14:36:53Z</time></trkpt><trkpt lat="45.386763945269124" lon="4.842163714951927"><ele>249.0</ele><time>2026-04-25T14:36:54Z</time></trkpt><trkpt lat="45.386799878335346" lon="4.842050611852967"><ele>249.0</ele><time>2026-04-25T14:36:55Z</time></trkpt><trkpt lat="45.38684417109786" lon="4.841962499724043"><ele>249.0</ele><time>2026-04-25T14:36:56Z</time></trkpt><trkpt lat="45.386885609557176" lon="4.841886240618797"><ele>249.0</ele><time>2026-04-25T14:36:57Z</time></trkpt><trkpt lat="45.386925695720436" lon="4.841803325766342"><ele>249.0</ele><time>2026-04-25T14:36:58Z</time></trkpt><trkpt lat="45.38697597523623" lon="4.84171455485879"><ele>248.83333333333334</ele><time>2026-04-25T14:36:59Z</time></trkpt><trkpt lat="45.387026632018234" lon="4.841622241414843"><ele>248.66666666666669</ele><time>2026-04-25T14:37:00Z</time></trkpt><trkpt lat="45.38707057865475" lon="4.841551124130551"><ele>248.5</ele><time>2026-04-25T14:37:01Z</time></trkpt><trkpt lat="45.387140685638805" lon="4.841471829904849"><ele>248.33333333333334</ele><time>2026-04-25T14:37:03Z</time></trkpt><trkpt lat="45.387265376615396" lon="4.8413906494887575"><ele>248.16666666666669</ele><time>2026-04-25T14:37:05Z</time></trkpt><trkpt lat="45.38732714026747" lon="4.841349906043756"><ele>248.0</ele><time>2026-04-25T14:37:06Z</time></trkpt><trkpt lat="45.38739558081173" lon="4.841302626582099"><ele>248.83333333333334</ele><time>2026-04-25T14:37:07Z</time></trkpt><trkpt lat="45.38744899091653" lon="4.841254146602732"><ele>249.66666666666669</ele><time>2026-04-25T14:37:08Z</time></trkpt><trkpt lat="45.38754121680802" lon="4.841130236589982"><ele>250.5</ele><time>2026-04-25T14:37:10Z</time></trkpt><trkpt lat="45.38758522979576" lon="4.841066049786214"><ele>251.33333333333331</ele><time>2026-04-25T14:37:11Z</time></trkpt><trkpt lat="45.38764063483479" lon="4.841019178090322"><ele>252.16666666666666</ele><time>2026-04-25T14:37:13Z</time></trkpt><trkpt lat="45.38773091319027" lon="4.841044266434177"><ele>253.0</ele><time>2026-04-25T14:37:15Z</time></trkpt><trkpt lat="45.3878007266205" lon="4.8410890835569145"><ele>253.0</ele><time>2026-04-25T14:37:17Z</time></trkpt><trkpt lat="45.38785508019291" lon="4.841150916439052"><ele>253.0</ele><time>2026-04-25T14:37:18Z</time></trkpt><trkpt lat="45.38791113027438" lon="4.841229372570264"><ele>253.0</ele><time>2026-04-25T14:37:19Z</time></trkpt><trkpt lat="45.387965332816556" lon="4.841342080827922"><ele>253.0</ele><time>2026-04-25T14:37:20Z</time></trkpt><trkpt lat="45.388034432268384" lon="4.841446030068863"><ele>253.0</ele><time>2026-04-25T14:37:21Z</time></trkpt><trkpt lat="45.38812566033961" lon="4.841566974160158"><ele>253.0</ele><time>2026-04-25T14:37:22Z</time></trkpt><trkpt lat="45.38821944537274" lon="4.841683659102333"><ele>253.0</ele><time>2026-04-25T14:37:23Z</time></trkpt><trkpt lat="45.3882887070604" lon="4.841783445404239"><ele>253.0</ele><time>2026-04-25T14:37:24Z</time></trkpt><trkpt lat="45.38835129860332" lon="4.841884799772974"><ele>253.0</ele><time>2026-04-25T14:37:25Z</time></trkpt><trkpt lat="45.38840462691549" lon="4.842006280855956"><ele>253.0</ele><time>2026-04-25T14:37:26Z</time></trkpt><trkpt lat="45.3884538171854" lon="4.842125165680715"><ele>253.00000000000003</ele><time>2026-04-25T14:37:27Z</time></trkpt><trkpt lat="45.38850036019774" lon="4.8422190921446635"><ele>253.0</ele><time>2026-04-25T14:37:28Z</time></trkpt><trkpt lat="45.388541937078294" lon="4.842301849872464"><ele>253.00000000000003</ele><time>2026-04-25T14:37:29Z</time></trkpt><trkpt lat="45.38858425301548" lon="4.842380356396048"><ele>253.00000000000003</ele><time>2026-04-25T14:37:30Z</time></trkpt><trkpt lat="45.38861142746938" lon="4.8424675998072395"><ele>253.0</ele><time>2026-04-25T14:37:31Z</time></trkpt><trkpt lat="45.38855920853648" lon="4.842580541616178"><ele>253.00000000000003</ele><time>2026-04-25T14:37:32Z</time></trkpt><trkpt lat="45.38856891140073" lon="4.842672629946672"><ele>253.00000000000003</ele><time>2026-04-25T14:37:33Z</time></trkpt><trkpt lat="45.388612741671395" lon="4.842771220235967"><ele>252.83333333333331</ele><time>2026-04-25T14:37:34Z</time></trkpt><trkpt lat="45.3886396074721" lon="4.842870326910064"><ele>252.66666666666666</ele><time>2026-04-25T14:37:35Z</time></trkpt><trkpt lat="45.38867854106908" lon="4.8429782137268615"><ele>252.5</ele><time>2026-04-25T14:37:36Z</time></trkpt><trkpt lat="45.38868546250142" lon="4.843081364547523"><ele>252.33333333333331</ele><time>2026-04-25T14:37:37Z</time></trkpt><trkpt lat="45.38870414550347" lon="4.843179724048812"><ele>252.16666666666666</ele><time>2026-04-25T14:37:38Z</time></trkpt><trkpt lat="45.38876287754772" lon="4.843310177715264"><ele>252.0</ele><time>2026-04-25T14:37:40Z</time></trkpt><trkpt lat="45.38878128190423" lon="4.84348587028704"><ele>252.0</ele><time>2026-04-25T14:37:42Z</time></trkpt><trkpt lat="45.38880092849186" lon="4.843585814935015"><ele>252.0</ele><time>2026-04-25T14:37:43Z</time></trkpt><trkpt lat="45.38881373692238" lon="4.843676215475848"><ele>252.0</ele><time>2026-04-25T14:37:44Z</time></trkpt><trkpt lat="45.3888261928875" lon="4.843773177310489"><ele>252.0</ele><time>2026-04-25T14:37:45Z</time></trkpt><trkpt lat="45.38883740101359" lon="4.8438860067938885"><ele>252.0</ele><time>2026-04-25T14:37:46Z</time></trkpt><trkpt lat="45.38884760934749" lon="4.843997395702211"><ele>252.0</ele><time>2026-04-25T14:37:47Z</time></trkpt><trkpt lat="45.388854482686554" lon="4.844099411057427"><ele>252.0</ele><time>2026-04-25T14:37:48Z</time></trkpt><trkpt lat="45.388847007863156" lon="4.844198549276247"><ele>251.83333333333334</ele><time>2026-04-25T14:37:49Z</time></trkpt><trkpt lat="45.38886061375987" lon="4.844313087114199"><ele>251.66666666666669</ele><time>2026-04-25T14:37:50Z</time></trkpt><trkpt lat="45.38885615050418" lon="4.844428236928836"><ele>251.5</ele><time>2026-04-25T14:37:51Z</time></trkpt><trkpt lat="45.388842848740076" lon="4.844550050349377"><ele>251.33333333333334</ele><time>2026-04-25T14:37:52Z</time></trkpt><trkpt lat="45.38882841618011" lon="4.844677855831604"><ele>251.16666666666669</ele><time>2026-04-25T14:37:53Z</time></trkpt><trkpt lat="45.388870267275415" lon="4.844745878683467"><ele>251.0</ele><time>2026-04-25T14:37:54Z</time></trkpt><trkpt lat="45.38889191387897" lon="4.844924269617908"><ele>250.50000000000003</ele><time>2026-04-25T14:37:56Z</time></trkpt><trkpt lat="45.3889119355596" lon="4.845027323931591"><ele>250.0</ele><time>2026-04-25T14:37:57Z</time></trkpt><trkpt lat="45.38893293556783" lon="4.845209333683732"><ele>249.5</ele><time>2026-04-25T14:37:59Z</time></trkpt><trkpt lat="45.38896633471696" lon="4.8452908796479965"><ele>249.0</ele><time>2026-04-25T14:38:00Z</time></trkpt><trkpt lat="45.3889961138728" lon="4.845445725689713"><ele>248.50000000000003</ele><time>2026-04-25T14:38:02Z</time></trkpt><trkpt lat="45.38901517837233" lon="4.845532831832939"><ele>248.0</ele><time>2026-04-25T14:38:03Z</time></trkpt><trkpt lat="45.38903143939203" lon="4.845622555801793"><ele>247.60000000000002</ele><time>2026-04-25T14:38:04Z</time></trkpt><trkpt lat="45.38904760365947" lon="4.84571593109646"><ele>247.20000000000002</ele><time>2026-04-25T14:38:05Z</time></trkpt><trkpt lat="45.389066216052456" lon="4.8458779757228125"><ele>246.8</ele><time>2026-04-25T14:38:07Z</time></trkpt><trkpt lat="45.38909197360251" lon="4.846009756716278"><ele>246.4</ele><time>2026-04-25T14:38:09Z</time></trkpt><trkpt lat="45.38911983146223" lon="4.846163238324518"><ele>246.0</ele><time>2026-04-25T14:38:11Z</time></trkpt><trkpt lat="45.389127296516385" lon="4.846300174608704"><ele>246.0</ele><time>2026-04-25T14:38:13Z</time></trkpt><trkpt lat="45.38914534411335" lon="4.846419702350974"><ele>246.0</ele><time>2026-04-25T14:38:15Z</time></trkpt><trkpt lat="45.389174476971895" lon="4.846529789867965"><ele>246.0</ele><time>2026-04-25T14:38:17Z</time></trkpt><trkpt lat="45.38919331496622" lon="4.846652919905996"><ele>246.0</ele><time>2026-04-25T14:38:19Z</time></trkpt><trkpt lat="45.38920831779642" lon="4.846773904764612"><ele>246.0</ele><time>2026-04-25T14:38:21Z</time></trkpt><trkpt lat="45.3892197135827" lon="4.846870776404231"><ele>246.0</ele><time>2026-04-25T14:38:22Z</time></trkpt><trkpt lat="45.38922089971256" lon="4.846973956511362"><ele>245.8571428571429</ele><time>2026-04-25T14:38:23Z</time></trkpt><trkpt lat="45.38921995713399" lon="4.847097304172174"><ele>245.71428571428572</ele><time>2026-04-25T14:38:24Z</time></trkpt><trkpt lat="45.389233287404096" lon="4.847200633571725"><ele>245.57142857142858</ele><time>2026-04-25T14:38:25Z</time></trkpt><trkpt lat="45.38921589938771" lon="4.847288531422683"><ele>245.42857142857144</ele><time>2026-04-25T14:38:26Z</time></trkpt><trkpt lat="45.389209650152445" lon="4.847378848235504"><ele>245.28571428571428</ele><time>2026-04-25T14:38:27Z</time></trkpt><trkpt lat="45.38922173188087" lon="4.8474835891837325"><ele>245.14285714285714</ele><time>2026-04-25T14:38:28Z</time></trkpt><trkpt lat="45.38921414191206" lon="4.847582259507366"><ele>245.0</ele><time>2026-04-25T14:38:29Z</time></trkpt><trkpt lat="45.38920564135377" lon="4.8476720330659555"><ele>244.83333333333334</ele><time>2026-04-25T14:38:30Z</time></trkpt><trkpt lat="45.38921821692126" lon="4.847761925046064"><ele>244.66666666666669</ele><time>2026-04-25T14:38:31Z</time></trkpt><trkpt lat="45.38921863316364" lon="4.847858885782754"><ele>244.5</ele><time>2026-04-25T14:38:32Z</time></trkpt><trkpt lat="45.38921938575481" lon="4.847955830492156"><ele>244.33333333333331</ele><time>2026-04-25T14:38:33Z</time></trkpt><trkpt lat="45.389215455264946" lon="4.848050029364493"><ele>244.16666666666666</ele><time>2026-04-25T14:38:34Z</time></trkpt><trkpt lat="45.38920407960818" lon="4.848212378391818"><ele>244.0</ele><time>2026-04-25T14:38:36Z</time></trkpt><trkpt lat="45.38919803439313" lon="4.848367195241041"><ele>243.83333333333331</ele><time>2026-04-25T14:38:38Z</time></trkpt><trkpt lat="45.389194506565055" lon="4.848502005974662"><ele>243.66666666666666</ele><time>2026-04-25T14:38:40Z</time></trkpt><trkpt lat="45.38918476347262" lon="4.848608840306211"><ele>243.5</ele><time>2026-04-25T14:38:43Z</time></trkpt><trkpt lat="45.389282685755454" lon="4.848614510327397"><ele>243.33333333333331</ele><time>2026-04-25T14:38:46Z</time></trkpt><trkpt lat="45.389385024207705" lon="4.848605113906689"><ele>243.16666666666666</ele><time>2026-04-25T14:38:48Z</time></trkpt><trkpt lat="45.38945772008354" lon="4.84859244237328"><ele>243.0</ele><time>2026-04-25T14:38:50Z</time></trkpt><trkpt lat="45.38954319306993" lon="4.848579864353648"><ele>243.0</ele><time>2026-04-25T14:38:52Z</time></trkpt><trkpt lat="45.389631992531136" lon="4.848546885829972"><ele>243.0</ele><time>2026-04-25T14:38:54Z</time></trkpt><trkpt lat="45.38971911182874" lon="4.848536010455039"><ele>243.0</ele><time>2026-04-25T14:38:56Z</time></trkpt><trkpt lat="45.38980239022911" lon="4.8485244464237445"><ele>243.0</ele><time>2026-04-25T14:38:58Z</time></trkpt><trkpt lat="45.38988086623692" lon="4.848497904117439"><ele>243.0</ele><time>2026-04-25T14:39:00Z</time></trkpt><trkpt lat="45.389965991538574" lon="4.848474174578573"><ele>243.0</ele><time>2026-04-25T14:39:02Z</time></trkpt><trkpt lat="45.390085509317366" lon="4.848467225326947"><ele>242.83333333333334</ele><time>2026-04-25T14:39:04Z</time></trkpt><trkpt lat="45.39015295000112" lon="4.848433263960337"><ele>242.66666666666669</ele><time>2026-04-25T14:39:05Z</time></trkpt><trkpt lat="45.39022183545621" lon="4.848424433002616"><ele>242.5</ele><time>2026-04-25T14:39:06Z</time></trkpt><trkpt lat="45.390303296853155" lon="4.8484137942685726"><ele>242.33333333333334</ele><time>2026-04-25T14:39:07Z</time></trkpt><trkpt lat="45.390380273080474" lon="4.848391133941018"><ele>242.16666666666669</ele><time>2026-04-25T14:39:08Z</time></trkpt><trkpt lat="45.39050651036785" lon="4.848373777006461"><ele>242.0</ele><time>2026-04-25T14:39:10Z</time></trkpt><trkpt lat="45.39061912114389" lon="4.848355077063522"><ele>242.0</ele><time>2026-04-25T14:39:12Z</time></trkpt><trkpt lat="45.390726257131675" lon="4.848332885736859"><ele>242.0</ele><time>2026-04-25T14:39:14Z</time></trkpt><trkpt lat="45.39082088715565" lon="4.848330493820582"><ele>242.0</ele><time>2026-04-25T14:39:16Z</time></trkpt><trkpt lat="45.39091265634784" lon="4.848309497230441"><ele>242.0</ele><time>2026-04-25T14:39:18Z</time></trkpt><trkpt lat="45.39101448578352" lon="4.848303659894387"><ele>242.0</ele><time>2026-04-25T14:39:20Z</time></trkpt><trkpt lat="45.39108497316783" lon="4.84829819594043"><ele>242.0</ele><time>2026-04-25T14:39:22Z</time></trkpt><trkpt lat="45.391165675146574" lon="4.84828019091131"><ele>242.0</ele><time>2026-04-25T14:39:25Z</time></trkpt><trkpt lat="45.39123840649974" lon="4.8482614708451965"><ele>242.0</ele><time>2026-04-25T14:39:30Z</time></trkpt><trkpt lat="45.391363757093956" lon="4.848220208622794"><ele>242.0</ele><time>2026-04-25T14:39:32Z</time></trkpt><trkpt lat="45.39143686467597" lon="4.848207968450465"><ele>242.0</ele><time>2026-04-25T14:39:33Z</time></trkpt><trkpt lat="45.391533766657005" lon="4.848206220776909"><ele>242.0</ele><time>2026-04-25T14:39:34Z</time></trkpt><trkpt lat="45.391634087515015" lon="4.848211846459094"><ele>242.0</ele><time>2026-04-25T14:39:35Z</time></trkpt><trkpt lat="45.39174462402479" lon="4.848064865940688"><ele>242.0</ele><time>2026-04-25T14:39:36Z</time></trkpt><trkpt lat="45.3918808582547" lon="4.847993423894535"><ele>242.0</ele><time>2026-04-25T14:39:37Z</time></trkpt><trkpt lat="45.3920274077032" lon="4.847897304325946"><ele>242.0</ele><time>2026-04-25T14:39:38Z</time></trkpt><trkpt lat="45.39218352077133" lon="4.8477941398492925"><ele>242.0</ele><time>2026-04-25T14:39:39Z</time></trkpt><trkpt lat="45.3923275582025" lon="4.847682813290849"><ele>242.0</ele><time>2026-04-25T14:39:40Z</time></trkpt><trkpt lat="45.39243766995741" lon="4.8475926562645935"><ele>242.0</ele><time>2026-04-25T14:39:41Z</time></trkpt><trkpt lat="45.392532541594626" lon="4.847521418388321"><ele>242.0</ele><time>2026-04-25T14:39:42Z</time></trkpt><trkpt lat="45.39265016149676" lon="4.847452197722272"><ele>242.0</ele><time>2026-04-25T14:39:43Z</time></trkpt><trkpt lat="45.39278266014464" lon="4.847364587885333"><ele>242.0</ele><time>2026-04-25T14:39:44Z</time></trkpt><trkpt lat="45.39289257015695" lon="4.847278963672587"><ele>242.0</ele><time>2026-04-25T14:39:45Z</time></trkpt><trkpt lat="45.39298535566418" lon="4.847179719213093"><ele>242.0</ele><time>2026-04-25T14:39:46Z</time></trkpt><trkpt lat="45.39309258600859" lon="4.847084847831569"><ele>242.0</ele><time>2026-04-25T14:39:47Z</time></trkpt><trkpt lat="45.39322212758926" lon="4.846979908656641"><ele>242.0</ele><time>2026-04-25T14:39:48Z</time></trkpt><trkpt lat="45.39335876801341" lon="4.846898098484385"><ele>242.5</ele><time>2026-04-25T14:39:49Z</time></trkpt><trkpt lat="45.39348214752705" lon="4.846850548143501"><ele>243.0</ele><time>2026-04-25T14:39:50Z</time></trkpt><trkpt lat="45.39359482415601" lon="4.8468276856625785"><ele>243.5</ele><time>2026-04-25T14:39:51Z</time></trkpt><trkpt lat="45.39370146513696" lon="4.846792822859888"><ele>244.0</ele><time>2026-04-25T14:39:52Z</time></trkpt><trkpt lat="45.39383424452151" lon="4.846752134333287"><ele>243.79999999999998</ele><time>2026-04-25T14:39:53Z</time></trkpt><trkpt lat="45.393938817263724" lon="4.846729351852562"><ele>243.59999999999997</ele><time>2026-04-25T14:39:54Z</time></trkpt><trkpt lat="45.39403383732607" lon="4.846734215304038"><ele>243.4</ele><time>2026-04-25T14:39:55Z</time></trkpt><trkpt lat="45.39411427846203" lon="4.846750030664092"><ele>243.2</ele><time>2026-04-25T14:39:56Z</time></trkpt><trkpt lat="45.39421469575856" lon="4.846771483576728"><ele>243.0</ele><time>2026-04-25T14:39:57Z</time></trkpt><trkpt lat="45.394302871858265" lon="4.846836979914788"><ele>243.0</ele><time>2026-04-25T14:39:58Z</time></trkpt><trkpt lat="45.39437471733979" lon="4.846930362733393"><ele>243.0</ele><time>2026-04-25T14:39:59Z</time></trkpt><trkpt lat="45.394448140912154" lon="4.847017216815115"><ele>243.0</ele><time>2026-04-25T14:40:00Z</time></trkpt><trkpt lat="45.39451490812144" lon="4.847085363940884"><ele>243.0</ele><time>2026-04-25T14:40:02Z</time></trkpt><trkpt lat="45.39457625307134" lon="4.847154345705456"><ele>243.0</ele><time>2026-04-25T14:40:04Z</time></trkpt><trkpt lat="45.39464041511018" lon="4.847217603936325"><ele>243.0</ele><time>2026-04-25T14:40:05Z</time></trkpt><trkpt lat="45.3947199302327" lon="4.847262755428588"><ele>243.0</ele><time>2026-04-25T14:40:06.001Z</time></trkpt><trkpt lat="45.3948063328062" lon="4.847325628104587"><ele>243.0</ele><time>2026-04-25T14:40:07.001Z</time></trkpt><trkpt lat="45.39491349911603" lon="4.847410854433849"><ele>243.0</ele><time>2026-04-25T14:40:08.001Z</time></trkpt><trkpt lat="45.39501627121169" lon="4.847518675595937"><ele>243.0</ele><time>2026-04-25T14:40:09.001Z</time></trkpt><trkpt lat="45.395093329722286" lon="4.847597889514491"><ele>243.0</ele><time>2026-04-25T14:40:10.001Z</time></trkpt><trkpt lat="45.395163380080845" lon="4.8476709401051705"><ele>243.0</ele><time>2026-04-25T14:40:11.001Z</time></trkpt><trkpt lat="45.39523442535887" lon="4.847774399244444"><ele>243.0</ele><time>2026-04-25T14:40:12.001Z</time></trkpt><trkpt lat="45.39531592336573" lon="4.84789135825676"><ele>243.0</ele><time>2026-04-25T14:40:13.001Z</time></trkpt><trkpt lat="45.39538649344768" lon="4.84800564928668"><ele>243.0</ele><time>2026-04-25T14:40:14.001Z</time></trkpt><trkpt lat="45.39545273931803" lon="4.848165449215586"><ele>243.25</ele><time>2026-04-25T14:40:15Z</time></trkpt><trkpt lat="45.395520234086725" lon="4.848317896758335"><ele>243.5</ele><time>2026-04-25T14:40:16Z</time></trkpt><trkpt lat="45.39557485290659" lon="4.848445299310186"><ele>243.75</ele><time>2026-04-25T14:40:17Z</time></trkpt><trkpt lat="45.39565163072515" lon="4.848597486866282"><ele>244.0</ele><time>2026-04-25T14:40:18Z</time></trkpt><trkpt lat="45.3957372321043" lon="4.848750816798418"><ele>244.25</ele><time>2026-04-25T14:40:19Z</time></trkpt><trkpt lat="45.3958318847601" lon="4.848912548345471"><ele>244.5</ele><time>2026-04-25T14:40:20Z</time></trkpt><trkpt lat="45.39590341895108" lon="4.8490447848295775"><ele>244.75</ele><time>2026-04-25T14:40:21Z</time></trkpt><trkpt lat="45.39597352337008" lon="4.849191950286679"><ele>245.0</ele><time>2026-04-25T14:40:22Z</time></trkpt><trkpt lat="45.396047099497785" lon="4.849336506715406"><ele>244.5</ele><time>2026-04-25T14:40:23Z</time></trkpt><trkpt lat="45.39613009938374" lon="4.849459758800281"><ele>244.0</ele><time>2026-04-25T14:40:24Z</time></trkpt><trkpt lat="45.396208516398346" lon="4.849590370781331"><ele>243.5</ele><time>2026-04-25T14:40:25Z</time></trkpt><trkpt lat="45.3962970265049" lon="4.849722435377482"><ele>243.0</ele><time>2026-04-25T14:40:26Z</time></trkpt><trkpt lat="45.39639045102474" lon="4.849850863748231"><ele>243.0</ele><time>2026-04-25T14:40:27Z</time></trkpt><trkpt lat="45.396474492082405" lon="4.849965340192884"><ele>243.0</ele><time>2026-04-25T14:40:28Z</time></trkpt><trkpt lat="45.39655452399381" lon="4.850061152015002"><ele>243.0</ele><time>2026-04-25T14:40:29Z</time></trkpt><trkpt lat="45.39664279976255" lon="4.8501709893239875"><ele>243.0</ele><time>2026-04-25T14:40:30Z</time></trkpt><trkpt lat="45.39671130478217" lon="4.850282673550749"><ele>243.0</ele><time>2026-04-25T14:40:31Z</time></trkpt><trkpt lat="45.39675615525359" lon="4.850378540461394"><ele>243.0</ele><time>2026-04-25T14:40:32Z</time></trkpt><trkpt lat="45.396804816872056" lon="4.8504613638284875"><ele>243.0</ele><time>2026-04-25T14:40:33Z</time></trkpt><trkpt lat="45.396854318542" lon="4.850530029498383"><ele>243.0</ele><time>2026-04-25T14:40:34Z</time></trkpt><trkpt lat="45.39691252395687" lon="4.850581950696371"><ele>243.0</ele><time>2026-04-25T14:40:35Z</time></trkpt><trkpt lat="45.39698960201171" lon="4.850617369550623"><ele>243.0</ele><time>2026-04-25T14:40:36Z</time></trkpt><trkpt lat="45.39709862003981" lon="4.850590038401422"><ele>243.0</ele><time>2026-04-25T14:40:37Z</time></trkpt><trkpt lat="45.39722896019501" lon="4.850590642157173"><ele>242.60000000000002</ele><time>2026-04-25T14:40:38Z</time></trkpt><trkpt lat="45.397355880391835" lon="4.850634847513646"><ele>242.20000000000002</ele><time>2026-04-25T14:40:39Z</time></trkpt><trkpt lat="45.39747304931171" lon="4.850673385032518"><ele>241.8</ele><time>2026-04-25T14:40:40Z</time></trkpt><trkpt lat="45.39756651418521" lon="4.850705296750195"><ele>241.4</ele><time>2026-04-25T14:40:41Z</time></trkpt><trkpt lat="45.39764846243171" lon="4.850730443207805"><ele>241.0</ele><time>2026-04-25T14:40:42Z</time></trkpt><trkpt lat="45.39775956552441" lon="4.850730256965183"><ele>241.0</ele><time>2026-04-25T14:40:43Z</time></trkpt><trkpt lat="45.39789063376921" lon="4.850801168277482"><ele>241.0</ele><time>2026-04-25T14:40:44Z</time></trkpt><trkpt lat="45.39802978090644" lon="4.850907411446995"><ele>241.0</ele><time>2026-04-25T14:40:45Z</time></trkpt><trkpt lat="45.398153471291614" lon="4.850963142273105"><ele>241.0</ele><time>2026-04-25T14:40:46Z</time></trkpt><trkpt lat="45.398286883806314" lon="4.8510105817004705"><ele>240.25</ele><time>2026-04-25T14:40:47Z</time></trkpt><trkpt lat="45.398443905043564" lon="4.851077571026984"><ele>239.5</ele><time>2026-04-25T14:40:48Z</time></trkpt><trkpt lat="45.39858376514513" lon="4.851119964445609"><ele>238.75</ele><time>2026-04-25T14:40:49Z</time></trkpt><trkpt lat="45.398700288126136" lon="4.851146651880018"><ele>238.0</ele><time>2026-04-25T14:40:50Z</time></trkpt><trkpt lat="45.39880853503801" lon="4.851182100236956"><ele>237.75</ele><time>2026-04-25T14:40:51Z</time></trkpt><trkpt lat="45.39894849988378" lon="4.851197493680163"><ele>237.5</ele><time>2026-04-25T14:40:52Z</time></trkpt><trkpt lat="45.39906359820619" lon="4.851214100232914"><ele>237.25</ele><time>2026-04-25T14:40:53Z</time></trkpt><trkpt lat="45.3991631344772" lon="4.851234251227588"><ele>237.0</ele><time>2026-04-25T14:40:54Z</time></trkpt><trkpt lat="45.39926295628835" lon="4.851264484156484"><ele>237.0</ele><time>2026-04-25T14:40:55Z</time></trkpt><trkpt lat="45.399389356747" lon="4.85128734592129"><ele>237.0</ele><time>2026-04-25T14:40:56Z</time></trkpt><trkpt lat="45.3995144642466" lon="4.851350329776925"><ele>237.0</ele><time>2026-04-25T14:40:57Z</time></trkpt><trkpt lat="45.399610888100334" lon="4.851432294456002"><ele>237.0</ele><time>2026-04-25T14:40:58Z</time></trkpt><trkpt lat="45.39971312680931" lon="4.85151367796985"><ele>237.0</ele><time>2026-04-25T14:40:59Z</time></trkpt><trkpt lat="45.399805134220195" lon="4.851538757026913"><ele>237.0</ele><time>2026-04-25T14:41:00Z</time></trkpt><trkpt lat="45.39988080844879" lon="4.851554729651677"><ele>237.0</ele><time>2026-04-25T14:41:01Z</time></trkpt><trkpt lat="45.39998352647689" lon="4.851573203468743"><ele>237.0</ele><time>2026-04-25T14:41:02Z</time></trkpt><trkpt lat="45.40009574961502" lon="4.851642642942409"><ele>237.0</ele><time>2026-04-25T14:41:03Z</time></trkpt><trkpt lat="45.4001991455185" lon="4.851759529326889"><ele>236.75</ele><time>2026-04-25T14:41:04Z</time></trkpt><trkpt lat="45.40031140812863" lon="4.8518600111440024"><ele>236.5</ele><time>2026-04-25T14:41:05Z</time></trkpt><trkpt lat="45.40042302019293" lon="4.851974739969861"><ele>236.25</ele><time>2026-04-25T14:41:06Z</time></trkpt><trkpt lat="45.400539854909255" lon="4.852086729098725"><ele>236.0</ele><time>2026-04-25T14:41:07Z</time></trkpt><trkpt lat="45.400626148905666" lon="4.852184820420776"><ele>236.75</ele><time>2026-04-25T14:41:08Z</time></trkpt><trkpt lat="45.400719083434225" lon="4.852307296642959"><ele>237.5</ele><time>2026-04-25T14:41:09Z</time></trkpt><trkpt lat="45.40081529428812" lon="4.8524443414079785"><ele>238.25</ele><time>2026-04-25T14:41:10Z</time></trkpt><trkpt lat="45.40090997793052" lon="4.852611397793237"><ele>239.0</ele><time>2026-04-25T14:41:11Z</time></trkpt><trkpt lat="45.401031194238264" lon="4.852772630204336"><ele>239.0</ele><time>2026-04-25T14:41:12Z</time></trkpt><trkpt lat="45.40113810539504" lon="4.8529248503496785"><ele>239.0</ele><time>2026-04-25T14:41:13Z</time></trkpt><trkpt lat="45.40125882722422" lon="4.853072877304468"><ele>239.0</ele><time>2026-04-25T14:41:14Z</time></trkpt><trkpt lat="45.40138122383664" lon="4.853244103129832"><ele>239.0</ele><time>2026-04-25T14:41:15Z</time></trkpt><trkpt lat="45.40150948760668" lon="4.853434085199483"><ele>239.0</ele><time>2026-04-25T14:41:16Z</time></trkpt><trkpt lat="45.40162048352628" lon="4.853593692575967"><ele>239.0</ele><time>2026-04-25T14:41:17Z</time></trkpt><trkpt lat="45.4017245732544" lon="4.853724294596483"><ele>239.0</ele><time>2026-04-25T14:41:18Z</time></trkpt><trkpt lat="45.401845011692934" lon="4.853858361906378"><ele>239.0</ele><time>2026-04-25T14:41:19Z</time></trkpt><trkpt lat="45.4019873333366" lon="4.853991750393467"><ele>239.0</ele><time>2026-04-25T14:41:20Z</time></trkpt><trkpt lat="45.40214327980825" lon="4.854133818317429"><ele>239.0</ele><time>2026-04-25T14:41:21Z</time></trkpt><trkpt lat="45.40230188455759" lon="4.854285043895214"><ele>239.0</ele><time>2026-04-25T14:41:22Z</time></trkpt><trkpt lat="45.40243549597323" lon="4.8544109519247876"><ele>239.0</ele><time>2026-04-25T14:41:23Z</time></trkpt><trkpt lat="45.402549061205846" lon="4.8545127230474865"><ele>239.25</ele><time>2026-04-25T14:41:24Z</time></trkpt><trkpt lat="45.402643726443515" lon="4.854613504409022"><ele>239.5</ele><time>2026-04-25T14:41:25Z</time></trkpt><trkpt lat="45.402728132953676" lon="4.854687385407546"><ele>239.75</ele><time>2026-04-25T14:41:26Z</time></trkpt><trkpt lat="45.40284284687218" lon="4.854794504172386"><ele>240.0</ele><time>2026-04-25T14:41:28Z</time></trkpt><trkpt lat="45.40293431014893" lon="4.854879965454834"><ele>240.5</ele><time>2026-04-25T14:41:29Z</time></trkpt><trkpt lat="45.40303627593937" lon="4.854985311383871"><ele>241.0</ele><time>2026-04-25T14:41:30Z</time></trkpt><trkpt lat="45.4031467824121" lon="4.855097503743997"><ele>241.5</ele><time>2026-04-25T14:41:31Z</time></trkpt><trkpt lat="45.40325858343948" lon="4.855210984869349"><ele>242.0</ele><time>2026-04-25T14:41:32Z</time></trkpt><trkpt lat="45.40335196420626" lon="4.85530548096158"><ele>242.0</ele><time>2026-04-25T14:41:33Z</time></trkpt><trkpt lat="45.40345080250721" lon="4.855380639273201"><ele>242.0</ele><time>2026-04-25T14:41:34Z</time></trkpt><trkpt lat="45.403566545499075" lon="4.855455122738589"><ele>242.0</ele><time>2026-04-25T14:41:35Z</time></trkpt><trkpt lat="45.403696974241086" lon="4.855543478244028"><ele>242.0</ele><time>2026-04-25T14:41:36Z</time></trkpt><trkpt lat="45.40384406998793" lon="4.85560846442595"><ele>242.0</ele><time>2026-04-25T14:41:37Z</time></trkpt><trkpt lat="45.40395571583462" lon="4.855670822694636"><ele>242.0</ele><time>2026-04-25T14:41:38Z</time></trkpt><trkpt lat="45.40404772424936" lon="4.855703708550391"><ele>242.0</ele><time>2026-04-25T14:41:39Z</time></trkpt><trkpt lat="45.40412451598081" lon="4.8557641285370705"><ele>242.0</ele><time>2026-04-25T14:41:40Z</time></trkpt><trkpt lat="45.40421014987083" lon="4.855837239522424"><ele>242.0</ele><time>2026-04-25T14:41:41Z</time></trkpt><trkpt lat="45.404303943144825" lon="4.855904082263248"><ele>242.0</ele><time>2026-04-25T14:41:42Z</time></trkpt><trkpt lat="45.40438726849281" lon="4.855949950759665"><ele>242.0</ele><time>2026-04-25T14:41:43Z</time></trkpt><trkpt lat="45.404461726969096" lon="4.8559929733265355"><ele>242.0</ele><time>2026-04-25T14:41:44Z</time></trkpt><trkpt lat="45.40452344577294" lon="4.856033264703982"><ele>242.0</ele><time>2026-04-25T14:41:45Z</time></trkpt><trkpt lat="45.4046296298387" lon="4.85610376561665"><ele>242.0</ele><time>2026-04-25T14:41:47Z</time></trkpt><trkpt lat="45.40471993115205" lon="4.8561690523378145"><ele>242.0</ele><time>2026-04-25T14:41:49Z</time></trkpt><trkpt lat="45.404846080643736" lon="4.856239300287828"><ele>242.0</ele><time>2026-04-25T14:41:51Z</time></trkpt><trkpt lat="45.40494980699739" lon="4.856306869146312"><ele>242.0</ele><time>2026-04-25T14:41:52Z</time></trkpt><trkpt lat="45.4050342726176" lon="4.856349484100157"><ele>242.0</ele><time>2026-04-25T14:41:53Z</time></trkpt><trkpt lat="45.40509819859049" lon="4.856394251325874"><ele>242.0</ele><time>2026-04-25T14:41:54Z</time></trkpt><trkpt lat="45.40516503721904" lon="4.856438924753352"><ele>242.00000000000003</ele><time>2026-04-25T14:41:55Z</time></trkpt><trkpt lat="45.40523724381645" lon="4.856483519220845"><ele>242.0</ele><time>2026-04-25T14:41:56Z</time></trkpt><trkpt lat="45.4053160719121" lon="4.856528798720175"><ele>242.0</ele><time>2026-04-25T14:41:57Z</time></trkpt><trkpt lat="45.405394293101025" lon="4.856566884863008"><ele>242.0</ele><time>2026-04-25T14:41:58Z</time></trkpt><trkpt lat="45.405458989229615" lon="4.856595445130008"><ele>242.00000000000003</ele><time>2026-04-25T14:41:59Z</time></trkpt><trkpt lat="45.4055316332841" lon="4.856641511630919"><ele>242.0</ele><time>2026-04-25T14:42:00Z</time></trkpt><trkpt lat="45.405635744793074" lon="4.85673509655633"><ele>242.0</ele><time>2026-04-25T14:42:02Z</time></trkpt><trkpt lat="45.40571753999948" lon="4.856785824214963"><ele>242.0</ele><time>2026-04-25T14:42:03Z</time></trkpt><trkpt lat="45.40581601035025" lon="4.856831031697284"><ele>242.0</ele><time>2026-04-25T14:42:04Z</time></trkpt><trkpt lat="45.40592246314294" lon="4.856895478971754"><ele>242.0</ele><time>2026-04-25T14:42:05Z</time></trkpt><trkpt lat="45.40602592427885" lon="4.856945528032757"><ele>242.0</ele><time>2026-04-25T14:42:06Z</time></trkpt><trkpt lat="45.406103821606514" lon="4.8569824864633695"><ele>242.0</ele><time>2026-04-25T14:42:07Z</time></trkpt><trkpt lat="45.40619341162481" lon="4.857034171513988"><ele>242.0</ele><time>2026-04-25T14:42:09Z</time></trkpt><trkpt lat="45.40627431288901" lon="4.8570679884489145"><ele>242.0</ele><time>2026-04-25T14:42:28Z</time></trkpt><trkpt lat="45.40635761261437" lon="4.8570437262590795"><ele>242.0</ele><time>2026-04-25T14:42:30Z</time></trkpt><trkpt lat="45.40643732020385" lon="4.856904210308192"><ele>242.0</ele><time>2026-04-25T14:42:32Z</time></trkpt><trkpt lat="45.406508839109456" lon="4.856840765607165"><ele>242.6</ele><time>2026-04-25T14:42:33Z</time></trkpt><trkpt lat="45.40655820362986" lon="4.8567432192920705"><ele>243.2</ele><time>2026-04-25T14:42:34Z</time></trkpt><trkpt lat="45.40664219482954" lon="4.856666879701789"><ele>243.8</ele><time>2026-04-25T14:42:35Z</time></trkpt><trkpt lat="45.40672352830301" lon="4.856547172580544"><ele>244.4</ele><time>2026-04-25T14:42:36Z</time></trkpt><trkpt lat="45.406815120763746" lon="4.856424316743021"><ele>245.0</ele><time>2026-04-25T14:42:37Z</time></trkpt><trkpt lat="45.406910534972425" lon="4.85630346376299"><ele>245.0</ele><time>2026-04-25T14:42:38Z</time></trkpt><trkpt lat="45.40701149842802" lon="4.85617563547438"><ele>245.0</ele><time>2026-04-25T14:42:39Z</time></trkpt><trkpt lat="45.4071280493213" lon="4.856017855692036"><ele>245.0</ele><time>2026-04-25T14:42:40Z</time></trkpt><trkpt lat="45.40726733143125" lon="4.855851394131141"><ele>245.33333333333334</ele><time>2026-04-25T14:42:41Z</time></trkpt><trkpt lat="45.40739204740602" lon="4.855674330247747"><ele>245.66666666666669</ele><time>2026-04-25T14:42:42Z</time></trkpt><trkpt lat="45.40753185988587" lon="4.855492703870468"><ele>246.0</ele><time>2026-04-25T14:42:43Z</time></trkpt><trkpt lat="45.40767877009597" lon="4.85528722999869"><ele>246.0</ele><time>2026-04-25T14:42:44Z</time></trkpt><trkpt lat="45.40782517736818" lon="4.855125842465825"><ele>246.0</ele><time>2026-04-25T14:42:45Z</time></trkpt><trkpt lat="45.40792128840637" lon="4.854973542315881"><ele>246.0</ele><time>2026-04-25T14:42:46Z</time></trkpt><trkpt lat="45.40798094971947" lon="4.854890243751473"><ele>246.0</ele><time>2026-04-25T14:42:47Z</time></trkpt><trkpt lat="45.4080609536057" lon="4.854844407745205"><ele>245.60000000000002</ele><time>2026-04-25T14:42:50Z</time></trkpt><trkpt lat="45.408135165998516" lon="4.854747040967996"><ele>245.20000000000002</ele><time>2026-04-25T14:42:52Z</time></trkpt><trkpt lat="45.408197137467525" lon="4.854679231491595"><ele>244.79999999999998</ele><time>2026-04-25T14:42:53Z</time></trkpt><trkpt lat="45.40827130002961" lon="4.8546032207703975"><ele>244.39999999999998</ele><time>2026-04-25T14:42:54Z</time></trkpt><trkpt lat="45.40834638417888" lon="4.854536406597415"><ele>244.0</ele><time>2026-04-25T14:42:55Z</time></trkpt><trkpt lat="45.40872783690341" lon="4.854946876963387"><ele>244.25</ele><time>2026-04-25T14:42:56Z</time></trkpt><trkpt lat="45.408842427914976" lon="4.85497498826387"><ele>244.5</ele><time>2026-04-25T14:42:57Z</time></trkpt><trkpt lat="45.40899204424596" lon="4.8550247073757955"><ele>244.75</ele><time>2026-04-25T14:42:58Z</time></trkpt><trkpt lat="45.409096696059684" lon="4.855003519924399"><ele>245.0</ele><time>2026-04-25T14:42:59Z</time></trkpt><trkpt lat="45.409193597838446" lon="4.855008744876104"><ele>245.0</ele><time>2026-04-25T14:43:00Z</time></trkpt><trkpt lat="45.40930029166747" lon="4.85501715754923"><ele>245.0</ele><time>2026-04-25T14:43:01Z</time></trkpt><trkpt lat="45.40939031735207" lon="4.855059372550659"><ele>245.0</ele><time>2026-04-25T14:43:02Z</time></trkpt><trkpt lat="45.40950558760107" lon="4.855059549157883"><ele>245.0</ele><time>2026-04-25T14:43:03Z</time></trkpt><trkpt lat="45.40962711746941" lon="4.8550673671217135"><ele>245.0</ele><time>2026-04-25T14:43:04Z</time></trkpt><trkpt lat="45.409722258074886" lon="4.855077807094827"><ele>245.0</ele><time>2026-04-25T14:43:05Z</time></trkpt><trkpt lat="45.409801816292116" lon="4.855084905426955"><ele>245.0</ele><time>2026-04-25T14:43:06Z</time></trkpt><trkpt lat="45.409872337138644" lon="4.855102139757329"><ele>245.0</ele><time>2026-04-25T14:43:07Z</time></trkpt><trkpt lat="45.40995225329879" lon="4.855104446937675"><ele>245.0</ele><time>2026-04-25T14:43:08Z</time></trkpt><trkpt lat="45.410054827011834" lon="4.855118914758922"><ele>245.0</ele><time>2026-04-25T14:43:09Z</time></trkpt><trkpt lat="45.41017490694196" lon="4.855135926419785"><ele>245.0</ele><time>2026-04-25T14:43:10Z</time></trkpt><trkpt lat="45.410298155089954" lon="4.855148896684047"><ele>245.0</ele><time>2026-04-25T14:43:11Z</time></trkpt><trkpt lat="45.41039882140601" lon="4.8551503445602275"><ele>245.0</ele><time>2026-04-25T14:43:12Z</time></trkpt><trkpt lat="45.4104923816118" lon="4.85516711099678"><ele>245.0</ele><time>2026-04-25T14:43:13Z</time></trkpt><trkpt lat="45.41058878541317" lon="4.855178817022179"><ele>245.0</ele><time>2026-04-25T14:43:14Z</time></trkpt><trkpt lat="45.41068912719046" lon="4.8551800813222465"><ele>245.4</ele><time>2026-04-25T14:43:15Z</time></trkpt><trkpt lat="45.41079266227571" lon="4.855199089905503"><ele>245.8</ele><time>2026-04-25T14:43:16Z</time></trkpt><trkpt lat="45.41089480622098" lon="4.8552009701230405"><ele>246.2</ele><time>2026-04-25T14:43:17Z</time></trkpt><trkpt lat="45.41099133185634" lon="4.855200224317872"><ele>246.6</ele><time>2026-04-25T14:43:18Z</time></trkpt><trkpt lat="45.4110869368111" lon="4.855210930707338"><ele>247.0</ele><time>2026-04-25T14:43:19Z</time></trkpt><trkpt lat="45.41118713394564" lon="4.855221518048913"><ele>247.0</ele><time>2026-04-25T14:43:20Z</time></trkpt><trkpt lat="45.41129134647118" lon="4.855242645150823"><ele>247.0</ele><time>2026-04-25T14:43:21Z</time></trkpt><trkpt lat="45.41140271278023" lon="4.855252398212485"><ele>247.0</ele><time>2026-04-25T14:43:22Z</time></trkpt><trkpt lat="45.411515477263166" lon="4.855273361060991"><ele>247.0</ele><time>2026-04-25T14:43:23Z</time></trkpt><trkpt lat="45.41161463232404" lon="4.855288254461409"><ele>247.0</ele><time>2026-04-25T14:43:24Z</time></trkpt><trkpt lat="45.411695448294026" lon="4.85531201888321"><ele>246.8</ele><time>2026-04-25T14:43:25Z</time></trkpt><trkpt lat="45.41182262674004" lon="4.855362998766333"><ele>246.6</ele><time>2026-04-25T14:43:27Z</time></trkpt><trkpt lat="45.41191454397756" lon="4.855407846040765"><ele>246.40000000000003</ele><time>2026-04-25T14:43:29Z</time></trkpt><trkpt lat="45.411916056013276" lon="4.855560172797965"><ele>246.20000000000002</ele><time>2026-04-25T14:43:31Z</time></trkpt><trkpt lat="45.41191923306285" lon="4.8556581799394705"><ele>246.0</ele><time>2026-04-25T14:43:32Z</time></trkpt><trkpt lat="45.41189744860139" lon="4.855776580278338"><ele>246.0</ele><time>2026-04-25T14:43:33Z</time></trkpt><trkpt lat="45.41187131106224" lon="4.855909228466205"><ele>246.0</ele><time>2026-04-25T14:43:34Z</time></trkpt><trkpt lat="45.41186016201509" lon="4.856016188613434"><ele>246.0</ele><time>2026-04-25T14:43:35Z</time></trkpt><trkpt lat="45.41184937780391" lon="4.856136635689331"><ele>246.0</ele><time>2026-04-25T14:43:36Z</time></trkpt><trkpt lat="45.411847279281595" lon="4.8562405962963435"><ele>246.0</ele><time>2026-04-25T14:43:37Z</time></trkpt><trkpt lat="45.411829736961316" lon="4.856350830184967"><ele>246.0</ele><time>2026-04-25T14:43:38Z</time></trkpt><trkpt lat="45.41181336820018" lon="4.8564716787804665"><ele>246.0</ele><time>2026-04-25T14:43:39Z</time></trkpt><trkpt lat="45.4117964554589" lon="4.856629331516668"><ele>246.00000000000003</ele><time>2026-04-25T14:43:40Z</time></trkpt><trkpt lat="45.411778921956966" lon="4.856790391733673"><ele>246.00000000000003</ele><time>2026-04-25T14:43:41Z</time></trkpt><trkpt lat="45.41176627024184" lon="4.856914980048214"><ele>246.0</ele><time>2026-04-25T14:43:42Z</time></trkpt><trkpt lat="45.41175977122972" lon="4.857050833882204"><ele>246.0</ele><time>2026-04-25T14:43:43Z</time></trkpt><trkpt lat="45.411766259727074" lon="4.8571988132693615"><ele>246.0</ele><time>2026-04-25T14:43:44Z</time></trkpt><trkpt lat="45.4117767133843" lon="4.857324213392923"><ele>246.00000000000003</ele><time>2026-04-25T14:43:45Z</time></trkpt><trkpt lat="45.41176526038518" lon="4.857450708524842"><ele>246.00000000000003</ele><time>2026-04-25T14:43:46Z</time></trkpt><trkpt lat="45.411778408881055" lon="4.857608850366381"><ele>246.0</ele><time>2026-04-25T14:43:47Z</time></trkpt><trkpt lat="45.41176675668892" lon="4.857748025430228"><ele>246.0</ele><time>2026-04-25T14:43:48Z</time></trkpt><trkpt lat="45.411753521177815" lon="4.8578669921779785"><ele>246.0</ele><time>2026-04-25T14:43:49Z</time></trkpt><trkpt lat="45.41174351472262" lon="4.85799492660864"><ele>246.00000000000003</ele><time>2026-04-25T14:43:50Z</time></trkpt><trkpt lat="45.411718460325005" lon="4.858137689933775"><ele>246.00000000000003</ele><time>2026-04-25T14:43:51Z</time></trkpt><trkpt lat="45.41168901577155" lon="4.858287073748425"><ele>246.0</ele><time>2026-04-25T14:43:52Z</time></trkpt><trkpt lat="45.411670361140864" lon="4.858478394315689"><ele>246.0</ele><time>2026-04-25T14:43:53Z</time></trkpt><trkpt lat="45.411643131893015" lon="4.858678228287408"><ele>246.0</ele><time>2026-04-25T14:43:54Z</time></trkpt><trkpt lat="45.411602098727414" lon="4.858891270974262"><ele>246.0</ele><time>2026-04-25T14:43:55Z</time></trkpt><trkpt lat="45.4115772644816" lon="4.8590609584051725"><ele>246.0</ele><time>2026-04-25T14:43:56Z</time></trkpt><trkpt lat="45.41155149433255" lon="4.859197913258916"><ele>246.0</ele><time>2026-04-25T14:43:57Z</time></trkpt><trkpt lat="45.4115277139714" lon="4.859321784650748"><ele>246.25</ele><time>2026-04-25T14:43:58Z</time></trkpt><trkpt lat="45.41150051603437" lon="4.859465814774121"><ele>246.5</ele><time>2026-04-25T14:43:59Z</time></trkpt><trkpt lat="45.411457963832305" lon="4.859643751729019"><ele>246.75</ele><time>2026-04-25T14:44:00Z</time></trkpt><trkpt lat="45.41142119304095" lon="4.859800066065683"><ele>247.0</ele><time>2026-04-25T14:44:01Z</time></trkpt><trkpt lat="45.41138467352026" lon="4.859949030486142"><ele>247.0</ele><time>2026-04-25T14:44:02Z</time></trkpt><trkpt lat="45.41134953383991" lon="4.860103443370458"><ele>247.0</ele><time>2026-04-25T14:44:03Z</time></trkpt><trkpt lat="45.41131982346783" lon="4.860228254982604"><ele>247.0</ele><time>2026-04-25T14:44:04Z</time></trkpt><trkpt lat="45.411286061349756" lon="4.860366504864356"><ele>247.0</ele><time>2026-04-25T14:44:05Z</time></trkpt><trkpt lat="45.41125697738228" lon="4.8604718242367495"><ele>247.0</ele><time>2026-04-25T14:44:06Z</time></trkpt><trkpt lat="45.41125088741471" lon="4.860574698484593"><ele>246.8</ele><time>2026-04-25T14:44:08Z</time></trkpt><trkpt lat="45.41136169916158" lon="4.860539023074433"><ele>246.6</ele><time>2026-04-25T14:44:10Z</time></trkpt><trkpt lat="45.41144311866505" lon="4.860497558259545"><ele>246.40000000000003</ele><time>2026-04-25T14:44:11Z</time></trkpt><trkpt lat="45.41155336195558" lon="4.860516031104402"><ele>246.20000000000002</ele><time>2026-04-25T14:44:12Z</time></trkpt><trkpt lat="45.411684470842616" lon="4.860504682268162"><ele>246.0</ele><time>2026-04-25T14:44:13Z</time></trkpt><trkpt lat="45.41181083831358" lon="4.860489030959577"><ele>246.0</ele><time>2026-04-25T14:44:14Z</time></trkpt><trkpt lat="45.41192598983983" lon="4.860480342140214"><ele>246.00000000000003</ele><time>2026-04-25T14:44:15Z</time></trkpt><trkpt lat="45.41203124107569" lon="4.860475376362631"><ele>246.00000000000003</ele><time>2026-04-25T14:44:16Z</time></trkpt><trkpt lat="45.41214297318589" lon="4.8604745649811525"><ele>246.0</ele><time>2026-04-25T14:44:17Z</time></trkpt><trkpt lat="45.412257913408055" lon="4.860474012393512"><ele>246.0</ele><time>2026-04-25T14:44:18.001Z</time></trkpt><trkpt lat="45.41237168719936" lon="4.8604766615837365"><ele>246.0</ele><time>2026-04-25T14:44:19.001Z</time></trkpt><trkpt lat="45.41247206352883" lon="4.860487017741652"><ele>246.0</ele><time>2026-04-25T14:44:20.001Z</time></trkpt><trkpt lat="45.4125528219272" lon="4.860490043279301"><ele>246.0</ele><time>2026-04-25T14:44:21.001Z</time></trkpt><trkpt lat="45.41262472775615" lon="4.860492590315597"><ele>246.0</ele><time>2026-04-25T14:44:22.001Z</time></trkpt><trkpt lat="45.41268849196583" lon="4.860503848735652"><ele>246.0</ele><time>2026-04-25T14:44:23Z</time></trkpt><trkpt lat="45.412761917215214" lon="4.860508963221196"><ele>246.0</ele><time>2026-04-25T14:44:24Z</time></trkpt><trkpt lat="45.41287602160169" lon="4.860514092257327"><ele>245.60000000000002</ele><time>2026-04-25T14:44:25Z</time></trkpt><trkpt lat="45.41300228729333" lon="4.86051006872263"><ele>245.20000000000002</ele><time>2026-04-25T14:44:26Z</time></trkpt><trkpt lat="45.41311292636033" lon="4.860513074971614"><ele>244.79999999999998</ele><time>2026-04-25T14:44:27Z</time></trkpt><trkpt lat="45.41320323132131" lon="4.860519764347727"><ele>244.39999999999998</ele><time>2026-04-25T14:44:28Z</time></trkpt><trkpt lat="45.41328353064756" lon="4.860513456926591"><ele>244.0</ele><time>2026-04-25T14:44:29Z</time></trkpt><trkpt lat="45.41337684226091" lon="4.860518056538254"><ele>244.0</ele><time>2026-04-25T14:44:30Z</time></trkpt><trkpt lat="45.41348554209828" lon="4.860526640334126"><ele>243.99999999999997</ele><time>2026-04-25T14:44:31Z</time></trkpt><trkpt lat="45.41360373842673" lon="4.860530441311576"><ele>243.99999999999997</ele><time>2026-04-25T14:44:32Z</time></trkpt><trkpt lat="45.41371080051621" lon="4.860527854668129"><ele>244.0</ele><time>2026-04-25T14:44:33Z</time></trkpt><trkpt lat="45.41379940029476" lon="4.860512324233932"><ele>244.0</ele><time>2026-04-25T14:44:34Z</time></trkpt><trkpt lat="45.413875219808716" lon="4.860477672376569"><ele>243.83333333333331</ele><time>2026-04-25T14:44:35Z</time></trkpt><trkpt lat="45.413941087747084" lon="4.860457342510624"><ele>243.66666666666666</ele><time>2026-04-25T14:44:36Z</time></trkpt><trkpt lat="45.41402422349789" lon="4.860430531263701"><ele>243.5</ele><time>2026-04-25T14:44:37Z</time></trkpt><trkpt lat="45.41410590516582" lon="4.860389311400851"><ele>243.33333333333331</ele><time>2026-04-25T14:44:38Z</time></trkpt><trkpt lat="45.414192921422796" lon="4.860389801317963"><ele>243.16666666666666</ele><time>2026-04-25T14:44:39Z</time></trkpt><trkpt lat="45.414262811243134" lon="4.860391804355427"><ele>243.0</ele><time>2026-04-25T14:44:40Z</time></trkpt><trkpt lat="45.414351970107504" lon="4.860407636809378"><ele>243.0</ele><time>2026-04-25T14:44:41Z</time></trkpt><trkpt lat="45.41447491846954" lon="4.860414572341357"><ele>243.0</ele><time>2026-04-25T14:44:42Z</time></trkpt><trkpt lat="45.414587198788716" lon="4.860321504292915"><ele>243.0</ele><time>2026-04-25T14:44:43Z</time></trkpt><trkpt lat="45.41468607727214" lon="4.860263222574804"><ele>243.0</ele><time>2026-04-25T14:44:44Z</time></trkpt><trkpt lat="45.414773581663" lon="4.860247076292159"><ele>243.0</ele><time>2026-04-25T14:44:45Z</time></trkpt><trkpt lat="45.41487963745209" lon="4.8602066576617595"><ele>243.0</ele><time>2026-04-25T14:44:46Z</time></trkpt><trkpt lat="45.41501745270716" lon="4.860163748294476"><ele>243.0</ele><time>2026-04-25T14:44:47Z</time></trkpt><trkpt lat="45.415179397661944" lon="4.860124808288112"><ele>243.0</ele><time>2026-04-25T14:44:48Z</time></trkpt><trkpt lat="45.415341442624886" lon="4.860087317707087"><ele>243.33333333333331</ele><time>2026-04-25T14:44:49Z</time></trkpt><trkpt lat="45.41551149404937" lon="4.860048212204575"><ele>243.66666666666666</ele><time>2026-04-25T14:44:50Z</time></trkpt><trkpt lat="45.41568137081648" lon="4.860016200271274"><ele>244.0</ele><time>2026-04-25T14:44:51Z</time></trkpt><trkpt lat="45.41581674823523" lon="4.859995970036579"><ele>244.0</ele><time>2026-04-25T14:44:52Z</time></trkpt><trkpt lat="45.41593869181802" lon="4.859978739426171"><ele>244.0</ele><time>2026-04-25T14:44:53Z</time></trkpt><trkpt lat="45.41606384217031" lon="4.859932384283018"><ele>244.0</ele><time>2026-04-25T14:44:54Z</time></trkpt><trkpt lat="45.41617364710682" lon="4.859920453787284"><ele>244.0</ele><time>2026-04-25T14:44:55Z</time></trkpt><trkpt lat="45.41626931777225" lon="4.859895793724807"><ele>244.2</ele><time>2026-04-25T14:44:56Z</time></trkpt><trkpt lat="45.416386700384386" lon="4.859855864501417"><ele>244.39999999999998</ele><time>2026-04-25T14:44:57Z</time></trkpt><trkpt lat="45.416496599566386" lon="4.859837950667628"><ele>244.6</ele><time>2026-04-25T14:44:58Z</time></trkpt><trkpt lat="45.41658320577223" lon="4.859845522722513"><ele>244.8</ele><time>2026-04-25T14:44:59Z</time></trkpt><trkpt lat="45.41669420215367" lon="4.859818176180429"><ele>245.0</ele><time>2026-04-25T14:45:00Z</time></trkpt><trkpt lat="45.41680358399302" lon="4.859804858596125"><ele>245.00000000000003</ele><time>2026-04-25T14:45:01Z</time></trkpt><trkpt lat="45.416883390468726" lon="4.859778341369998"><ele>245.0</ele><time>2026-04-25T14:45:02Z</time></trkpt><trkpt lat="45.41697267502301" lon="4.859728470695941"><ele>245.0</ele><time>2026-04-25T14:45:03Z</time></trkpt><trkpt lat="45.41705365012481" lon="4.859719454101774"><ele>245.0</ele><time>2026-04-25T14:45:04Z</time></trkpt><trkpt lat="45.41713900136461" lon="4.859674577586574"><ele>245.00000000000003</ele><time>2026-04-25T14:45:05Z</time></trkpt><trkpt lat="45.417220746747766" lon="4.859616297086226"><ele>245.0</ele><time>2026-04-25T14:45:06Z</time></trkpt><trkpt lat="45.4173287552532" lon="4.859619113760892"><ele>244.75</ele><time>2026-04-25T14:45:07Z</time></trkpt><trkpt lat="45.41741870673149" lon="4.859594882550434"><ele>244.5</ele><time>2026-04-25T14:45:08Z</time></trkpt><trkpt lat="45.41752238856576" lon="4.859564989596256"><ele>244.25</ele><time>2026-04-25T14:45:09Z</time></trkpt><trkpt lat="45.41764329874456" lon="4.859548224808561"><ele>244.0</ele><time>2026-04-25T14:45:10Z</time></trkpt><trkpt lat="45.41777998096097" lon="4.859524488728609"><ele>244.0</ele><time>2026-04-25T14:45:11Z</time></trkpt><trkpt lat="45.41795735195332" lon="4.859490231797655"><ele>244.0</ele><time>2026-04-25T14:45:12Z</time></trkpt><trkpt lat="45.41810828952315" lon="4.859496904047261"><ele>244.0</ele><time>2026-04-25T14:45:13Z</time></trkpt><trkpt lat="45.41824527502885" lon="4.85940494638373"><ele>243.25</ele><time>2026-04-25T14:45:15Z</time></trkpt><trkpt lat="45.418340024404415" lon="4.859381235315048"><ele>242.5</ele><time>2026-04-25T14:45:16Z</time></trkpt><trkpt lat="45.41843925847588" lon="4.859349960031727"><ele>241.75</ele><time>2026-04-25T14:45:17Z</time></trkpt><trkpt lat="45.41856244689369" lon="4.859332771376695"><ele>241.0</ele><time>2026-04-25T14:45:18Z</time></trkpt><trkpt lat="45.418695675809396" lon="4.859334866147285"><ele>241.0</ele><time>2026-04-25T14:45:19Z</time></trkpt><trkpt lat="45.41880693384721" lon="4.8593130715341095"><ele>241.00000000000003</ele><time>2026-04-25T14:45:20Z</time></trkpt><trkpt lat="45.41890707508172" lon="4.859294064286197"><ele>241.00000000000003</ele><time>2026-04-25T14:45:21Z</time></trkpt><trkpt lat="45.418995500649125" lon="4.859271223254208"><ele>241.0</ele><time>2026-04-25T14:45:22Z</time></trkpt><trkpt lat="45.41907204883965" lon="4.859249823183023"><ele>241.0</ele><time>2026-04-25T14:45:23Z</time></trkpt><trkpt lat="45.419179262216325" lon="4.859259214836415"><ele>240.33333333333331</ele><time>2026-04-25T14:45:25Z</time></trkpt><trkpt lat="45.41926043578582" lon="4.859227920507202"><ele>239.66666666666666</ele><time>2026-04-25T14:45:27Z</time></trkpt><trkpt lat="45.419328401857996" lon="4.859214704202208"><ele>239.0</ele><time>2026-04-25T14:45:29Z</time></trkpt><trkpt lat="45.41939735577727" lon="4.85926311587478"><ele>238.33333333333331</ele><time>2026-04-25T14:45:31Z</time></trkpt><trkpt lat="45.41948047814592" lon="4.859329578301776"><ele>237.66666666666666</ele><time>2026-04-25T14:45:33Z</time></trkpt><trkpt lat="45.419557064683076" lon="4.85939599949017"><ele>237.0</ele><time>2026-04-25T14:45:35Z</time></trkpt><trkpt lat="45.41964606266877" lon="4.859418181046086"><ele>235.16666666666666</ele><time>2026-04-25T14:45:37Z</time></trkpt><trkpt lat="45.419749577654365" lon="4.859382693506949"><ele>233.33333333333331</ele><time>2026-04-25T14:45:39Z</time></trkpt><trkpt lat="45.41986160100264" lon="4.859349825159831"><ele>231.5</ele><time>2026-04-25T14:45:41Z</time></trkpt><trkpt lat="45.419932310381235" lon="4.859315594610855"><ele>229.66666666666666</ele><time>2026-04-25T14:45:42Z</time></trkpt><trkpt lat="45.4199917015965" lon="4.8592631235931725"><ele>227.83333333333331</ele><time>2026-04-25T14:45:43Z</time></trkpt><trkpt lat="45.42005461751492" lon="4.8592234595191"><ele>226.0</ele><time>2026-04-25T14:45:44Z</time></trkpt><trkpt lat="45.4201100387724" lon="4.859180420096467"><ele>225.99999999999997</ele><time>2026-04-25T14:45:45Z</time></trkpt><trkpt lat="45.42016950712616" lon="4.859125314159038"><ele>226.0</ele><time>2026-04-25T14:45:47Z</time></trkpt><trkpt lat="45.4202189295035" lon="4.859010873800994"><ele>226.0</ele><time>2026-04-25T14:45:53Z</time></trkpt><trkpt lat="45.420262598698436" lon="4.858946192870795"><ele>226.0</ele><time>2026-04-25T14:45:55Z</time></trkpt><trkpt lat="45.42033120686623" lon="4.858941116345946"><ele>225.99999999999997</ele><time>2026-04-25T14:46:01Z</time></trkpt><trkpt lat="45.420389694998576" lon="4.859002851754161"><ele>226.0</ele><time>2026-04-25T14:46:06Z</time></trkpt><trkpt lat="45.420452512131206" lon="4.85911515010534"><ele>224.66666666666666</ele><time>2026-04-25T14:46:10Z</time></trkpt><trkpt lat="45.42052383293572" lon="4.859125596298073"><ele>223.33333333333331</ele><time>2026-04-25T14:46:14Z</time></trkpt><trkpt lat="45.42058549648121" lon="4.859188600788659"><ele>222.0</ele><time>2026-04-25T14:46:19Z</time></trkpt><trkpt lat="45.42063299408332" lon="4.859253506503604"><ele>220.66666666666669</ele><time>2026-04-25T14:46:21Z</time></trkpt><trkpt lat="45.42065977367771" lon="4.859360803536124"><ele>219.33333333333334</ele><time>2026-04-25T14:46:24Z</time></trkpt><trkpt lat="45.420589740069126" lon="4.859467528531781"><ele>218.0</ele><time>2026-04-25T14:46:26Z</time></trkpt><trkpt lat="45.42051294222532" lon="4.8595280118172095"><ele>219.4</ele><time>2026-04-25T14:46:28Z</time></trkpt><trkpt lat="45.420453304689815" lon="4.859615024131227"><ele>220.8</ele><time>2026-04-25T14:46:30Z</time></trkpt><trkpt lat="45.420412747116124" lon="4.859721967601875"><ele>222.2</ele><time>2026-04-25T14:46:32Z</time></trkpt><trkpt lat="45.420364404615846" lon="4.859844707554976"><ele>223.6</ele><time>2026-04-25T14:46:34Z</time></trkpt><trkpt lat="45.42036279186045" lon="4.859990815328044"><ele>225.0</ele><time>2026-04-25T14:46:36Z</time></trkpt><trkpt lat="45.4203516245857" lon="4.8601107162901345"><ele>225.8</ele><time>2026-04-25T14:46:38Z</time></trkpt><trkpt lat="45.42033502866431" lon="4.86027071058738"><ele>226.6</ele><time>2026-04-25T14:46:41Z</time></trkpt><trkpt lat="45.42034176566294" lon="4.860407147818899"><ele>227.39999999999998</ele><time>2026-04-25T14:46:43Z</time></trkpt><trkpt lat="45.420378335964394" lon="4.860497022767804"><ele>228.2</ele><time>2026-04-25T14:46:45Z</time></trkpt><trkpt lat="45.42046369705488" lon="4.860539968407588"><ele>229.0</ele><time>2026-04-25T14:46:47Z</time></trkpt><trkpt lat="45.42058445222765" lon="4.860569583989322"><ele>227.49999999999997</ele><time>2026-04-25T14:46:49Z</time></trkpt><trkpt lat="45.42070926754044" lon="4.860567349523732"><ele>226.0</ele><time>2026-04-25T14:46:51Z</time></trkpt><trkpt lat="45.42076398586146" lon="4.860686927556227"><ele>224.5</ele><time>2026-04-25T14:46:52Z</time></trkpt><trkpt lat="45.42082986382705" lon="4.86071732007887"><ele>223.0</ele><time>2026-04-25T14:46:53Z</time></trkpt><trkpt lat="45.42089612301414" lon="4.86074783166354"><ele>221.49999999999997</ele><time>2026-04-25T14:46:54Z</time></trkpt><trkpt lat="45.42096182370593" lon="4.860786214983071"><ele>220.0</ele><time>2026-04-25T14:46:55Z</time></trkpt><trkpt lat="45.42102585816407" lon="4.860814893437246"><ele>220.0</ele><time>2026-04-25T14:46:56Z</time></trkpt><trkpt lat="45.42113160664673" lon="4.860860095047381"><ele>220.0</ele><time>2026-04-25T14:46:58Z</time></trkpt><trkpt lat="45.42123772629185" lon="4.86091239832149"><ele>220.0</ele><time>2026-04-25T14:47:00Z</time></trkpt><trkpt lat="45.421306337572744" lon="4.860943798533043"><ele>220.0</ele><time>2026-04-25T14:47:01Z</time></trkpt><trkpt lat="45.421418620631066" lon="4.861001370367345"><ele>220.0</ele><time>2026-04-25T14:47:03Z</time></trkpt><trkpt lat="45.42153653848756" lon="4.861043299125453"><ele>220.42857142857142</ele><time>2026-04-25T14:47:05Z</time></trkpt><trkpt lat="45.4216011571057" lon="4.86110724024793"><ele>220.85714285714286</ele><time>2026-04-25T14:47:07Z</time></trkpt><trkpt lat="45.42161880359524" lon="4.861193807450166"><ele>221.28571428571428</ele><time>2026-04-25T14:47:08Z</time></trkpt><trkpt lat="45.42165293969064" lon="4.8612699846490495"><ele>221.71428571428572</ele><time>2026-04-25T14:47:09Z</time></trkpt><trkpt lat="45.421662217199135" lon="4.86136109664496"><ele>222.14285714285714</ele><time>2026-04-25T14:47:10Z</time></trkpt><trkpt lat="45.421652837569525" lon="4.861459529776109"><ele>222.57142857142856</ele><time>2026-04-25T14:47:11Z</time></trkpt><trkpt lat="45.421618521457205" lon="4.861605741728237"><ele>223.0</ele><time>2026-04-25T14:47:13Z</time></trkpt><trkpt lat="45.42159104574786" lon="4.861689324926722"><ele>222.99999999999997</ele><time>2026-04-25T14:47:15Z</time></trkpt><trkpt lat="45.42154354496239" lon="4.861761450299377"><ele>223.0</ele><time>2026-04-25T14:47:20Z</time></trkpt><trkpt lat="45.42150615086838" lon="4.861844822908731"><ele>223.0</ele><time>2026-04-25T14:47:21Z</time></trkpt><trkpt lat="45.421460496388654" lon="4.861932956602725"><ele>223.0</ele><time>2026-04-25T14:47:22Z</time></trkpt><trkpt lat="45.42142170436264" lon="4.862027862322903"><ele>222.99999999999997</ele><time>2026-04-25T14:47:23Z</time></trkpt><trkpt lat="45.421372042775026" lon="4.862122616880169"><ele>223.0</ele><time>2026-04-25T14:47:24Z</time></trkpt><trkpt lat="45.42132557620617" lon="4.862207587978133"><ele>223.66666666666666</ele><time>2026-04-25T14:47:25Z</time></trkpt><trkpt lat="45.42128687186888" lon="4.862297187720809"><ele>224.33333333333331</ele><time>2026-04-25T14:47:26Z</time></trkpt><trkpt lat="45.42124870243913" lon="4.8623838528520436"><ele>225.0</ele><time>2026-04-25T14:47:27Z</time></trkpt><trkpt lat="45.421203195831936" lon="4.8624735841814095"><ele>225.66666666666669</ele><time>2026-04-25T14:47:28Z</time></trkpt><trkpt lat="45.42114826994164" lon="4.862562629610444"><ele>226.33333333333334</ele><time>2026-04-25T14:47:29Z</time></trkpt><trkpt lat="45.42109184298761" lon="4.862652462895114"><ele>227.0</ele><time>2026-04-25T14:47:30Z</time></trkpt><trkpt lat="45.421031696571106" lon="4.862738738623155"><ele>227.16666666666669</ele><time>2026-04-25T14:47:31Z</time></trkpt><trkpt lat="45.420964944525146" lon="4.862797338259247"><ele>227.33333333333334</ele><time>2026-04-25T14:47:32Z</time></trkpt><trkpt lat="45.42091164139889" lon="4.862873412899594"><ele>227.5</ele><time>2026-04-25T14:47:33Z</time></trkpt><trkpt lat="45.42088416187884" lon="4.862969486092803"><ele>227.66666666666669</ele><time>2026-04-25T14:47:34Z</time></trkpt><trkpt lat="45.42090400335176" lon="4.863122952898114"><ele>227.83333333333334</ele><time>2026-04-25T14:47:36Z</time></trkpt><trkpt lat="45.420946103934185" lon="4.863216859509067"><ele>228.0</ele><time>2026-04-25T14:47:37Z</time></trkpt><trkpt lat="45.420967110888995" lon="4.863349883064825"><ele>228.0</ele><time>2026-04-25T14:47:39Z</time></trkpt><trkpt lat="45.42094219357993" lon="4.863432258656331"><ele>228.0</ele><time>2026-04-25T14:47:40Z</time></trkpt><trkpt lat="45.420910626288595" lon="4.863512507544747"><ele>228.0</ele><time>2026-04-25T14:47:41Z</time></trkpt><trkpt lat="45.42083114776053" lon="4.863599824079066"><ele>228.0</ele><time>2026-04-25T14:47:43Z</time></trkpt><trkpt lat="45.420812851897566" lon="4.863744651047662"><ele>228.0</ele><time>2026-04-25T14:47:45Z</time></trkpt><trkpt lat="45.42081107779843" lon="4.863840946708725"><ele>228.0</ele><time>2026-04-25T14:47:48Z</time></trkpt><trkpt lat="45.42078876915661" lon="4.863961350299077"><ele>228.2</ele><time>2026-04-25T14:47:50Z</time></trkpt><trkpt lat="45.42073780820055" lon="4.864062748324281"><ele>228.4</ele><time>2026-04-25T14:47:52Z</time></trkpt><trkpt lat="45.4207249907323" lon="4.86418696051402"><ele>228.59999999999997</ele><time>2026-04-25T14:47:54Z</time></trkpt><trkpt lat="45.42071035847963" lon="4.864363883892504"><ele>228.79999999999998</ele><time>2026-04-25T14:47:56Z</time></trkpt><trkpt lat="45.420692355143785" lon="4.864465194823923"><ele>229.0</ele><time>2026-04-25T14:47:57Z</time></trkpt><trkpt lat="45.42070521628073" lon="4.864574930627052"><ele>228.99999999999997</ele><time>2026-04-25T14:47:58Z</time></trkpt><trkpt lat="45.42068847013169" lon="4.86468261279115"><ele>229.0</ele><time>2026-04-25T14:48:00Z</time></trkpt><trkpt lat="45.42068673722659" lon="4.86482961290434"><ele>229.0</ele><time>2026-04-25T14:48:02Z</time></trkpt><trkpt lat="45.420662234185016" lon="4.864959633882041"><ele>229.0</ele><time>2026-04-25T14:48:03Z</time></trkpt><trkpt lat="45.4206566684586" lon="4.865050427542114"><ele>228.99999999999997</ele><time>2026-04-25T14:48:04Z</time></trkpt><trkpt lat="45.420643956517615" lon="4.865140625393286"><ele>229.0</ele><time>2026-04-25T14:48:05Z</time></trkpt><trkpt lat="45.42061182090695" lon="4.865247105563265"><ele>229.2</ele><time>2026-04-25T14:48:06Z</time></trkpt><trkpt lat="45.42056296528663" lon="4.865334730000656"><ele>229.39999999999998</ele><time>2026-04-25T14:48:07Z</time></trkpt><trkpt lat="45.420506849125616" lon="4.865436539799265"><ele>229.6</ele><time>2026-04-25T14:48:08Z</time></trkpt><trkpt lat="45.42044373296525" lon="4.8655752458279835"><ele>229.8</ele><time>2026-04-25T14:48:09Z</time></trkpt><trkpt lat="45.42041198096271" lon="4.865679723672381"><ele>230.0</ele><time>2026-04-25T14:48:10Z</time></trkpt><trkpt lat="45.42035879219633" lon="4.865804404738191"><ele>230.8</ele><time>2026-04-25T14:48:12Z</time></trkpt><trkpt lat="45.420325547461005" lon="4.865936868833285"><ele>231.6</ele><time>2026-04-25T14:48:14Z</time></trkpt><trkpt lat="45.420281461771616" lon="4.866035464704444"><ele>232.39999999999998</ele><time>2026-04-25T14:48:16Z</time></trkpt><trkpt lat="45.42021585498399" lon="4.866199990122404"><ele>233.2</ele><time>2026-04-25T14:48:18Z</time></trkpt><trkpt lat="45.42018663749197" lon="4.866314036669273"><ele>234.0</ele><time>2026-04-25T14:48:20Z</time></trkpt><trkpt lat="45.42011008410251" lon="4.866476503000142"><ele>234.0</ele><time>2026-04-25T14:48:22Z</time></trkpt><trkpt lat="45.42007133560795" lon="4.866664279144892"><ele>233.99999999999997</ele><time>2026-04-25T14:48:24Z</time></trkpt><trkpt lat="45.420027289894485" lon="4.866816472763933"><ele>233.99999999999997</ele><time>2026-04-25T14:48:25Z</time></trkpt><trkpt lat="45.41999132123699" lon="4.866923919292324"><ele>234.0</ele><time>2026-04-25T14:48:26Z</time></trkpt><trkpt lat="45.41995762593977" lon="4.867010462107076"><ele>234.0</ele><time>2026-04-25T14:48:27Z</time></trkpt><trkpt lat="45.41992504946319" lon="4.867096072560299"><ele>234.0</ele><time>2026-04-25T14:48:28Z</time></trkpt><trkpt lat="45.41988976265895" lon="4.867187264391148"><ele>234.0</ele><time>2026-04-25T14:48:29Z</time></trkpt><trkpt lat="45.41986267419064" lon="4.867276376160647"><ele>234.0</ele><time>2026-04-25T14:48:30Z</time></trkpt><trkpt lat="45.41983529533269" lon="4.867373366207569"><ele>234.0</ele><time>2026-04-25T14:48:31Z</time></trkpt><trkpt lat="45.41981319838066" lon="4.867476570116746"><ele>234.0</ele><time>2026-04-25T14:48:32Z</time></trkpt><trkpt lat="45.419791463671906" lon="4.867640895170904"><ele>234.0</ele><time>2026-04-25T14:48:34Z</time></trkpt><trkpt lat="45.4198412515292" lon="4.8677310881185045"><ele>233.5</ele><time>2026-04-25T14:48:35Z</time></trkpt><trkpt lat="45.41985027378283" lon="4.86782414505378"><ele>233.0</ele><time>2026-04-25T14:48:36Z</time></trkpt><trkpt lat="45.41985997392908" lon="4.867920214143692"><ele>232.5</ele><time>2026-04-25T14:48:37Z</time></trkpt><trkpt lat="45.41987486316505" lon="4.868013785329693"><ele>232.0</ele><time>2026-04-25T14:48:38Z</time></trkpt><trkpt lat="45.41990068957118" lon="4.868111716335059"><ele>231.5</ele><time>2026-04-25T14:48:39Z</time></trkpt><trkpt lat="45.420022461564876" lon="4.86820429109435"><ele>231.0</ele><time>2026-04-25T14:48:41Z</time></trkpt><trkpt lat="45.42011177983842" lon="4.8682572813729745"><ele>231.0</ele><time>2026-04-25T14:48:42Z</time></trkpt><trkpt lat="45.42021659776136" lon="4.868322705472385"><ele>231.00000000000003</ele><time>2026-04-25T14:48:43Z</time></trkpt><trkpt lat="45.42031774483054" lon="4.868390118439561"><ele>231.00000000000003</ele><time>2026-04-25T14:48:44Z</time></trkpt><trkpt lat="45.42040577555325" lon="4.868436532393664"><ele>231.0</ele><time>2026-04-25T14:48:45Z</time></trkpt><trkpt lat="45.42046341023014" lon="4.868493492656124"><ele>231.0</ele><time>2026-04-25T14:48:46Z</time></trkpt><trkpt lat="45.420534354883245" lon="4.86856225239862"><ele>230.8</ele><time>2026-04-25T14:48:47Z</time></trkpt><trkpt lat="45.42061427190225" lon="4.868572993283311"><ele>230.60000000000002</ele><time>2026-04-25T14:48:48Z</time></trkpt><trkpt lat="45.42068953568022" lon="4.868625213158883"><ele>230.4</ele><time>2026-04-25T14:48:49Z</time></trkpt><trkpt lat="45.42077475177742" lon="4.868679869366873"><ele>230.2</ele><time>2026-04-25T14:48:50Z</time></trkpt><trkpt lat="45.42087072094365" lon="4.868722158092954"><ele>230.0</ele><time>2026-04-25T14:48:51Z</time></trkpt><trkpt lat="45.42097708729763" lon="4.868801248685531"><ele>230.0</ele><time>2026-04-25T14:48:52Z</time></trkpt><trkpt lat="45.421103893521895" lon="4.868866953222701"><ele>230.0</ele><time>2026-04-25T14:48:53Z</time></trkpt><trkpt lat="45.42120760454306" lon="4.86891409888475"><ele>230.0</ele><time>2026-04-25T14:48:54Z</time></trkpt><trkpt lat="45.421308596121115" lon="4.868981129968926"><ele>230.0</ele><time>2026-04-25T14:48:55Z</time></trkpt><trkpt lat="45.421392118989004" lon="4.869060243189426"><ele>230.2</ele><time>2026-04-25T14:48:56Z</time></trkpt><trkpt lat="45.42146758814944" lon="4.869088053079225"><ele>230.4</ele><time>2026-04-25T14:48:57Z</time></trkpt><trkpt lat="45.42155130134711" lon="4.869127234353707"><ele>230.60000000000002</ele><time>2026-04-25T14:48:58Z</time></trkpt><trkpt lat="45.42162651827323" lon="4.869180419565261"><ele>230.8</ele><time>2026-04-25T14:48:59Z</time></trkpt><trkpt lat="45.4217080368343" lon="4.869256247590799"><ele>231.0</ele><time>2026-04-25T14:49:01Z</time></trkpt><trkpt lat="45.42181460403977" lon="4.869312615579183"><ele>230.5</ele><time>2026-04-25T14:49:03Z</time></trkpt><trkpt lat="45.42188186022365" lon="4.869333314384544"><ele>230.0</ele><time>2026-04-25T14:49:04Z</time></trkpt><trkpt lat="45.42194128722293" lon="4.86937419280664"><ele>229.5</ele><time>2026-04-25T14:49:05Z</time></trkpt><trkpt lat="45.422029233147036" lon="4.869489814490157"><ele>229.0</ele><time>2026-04-25T14:49:07Z</time></trkpt><trkpt lat="45.422077294890485" lon="4.869594760209395"><ele>228.5</ele><time>2026-04-25T14:49:09Z</time></trkpt><trkpt lat="45.42213551101425" lon="4.869669987733597"><ele>228.0</ele><time>2026-04-25T14:49:12Z</time></trkpt><trkpt lat="45.42221849681781" lon="4.869705146227315"><ele>228.66666666666666</ele><time>2026-04-25T14:49:22Z</time></trkpt><trkpt lat="45.42228901110739" lon="4.869734001611654"><ele>229.33333333333331</ele><time>2026-04-25T14:49:24Z</time></trkpt><trkpt lat="45.422341599071466" lon="4.869786551123401"><ele>230.0</ele><time>2026-04-25T14:49:26Z</time></trkpt><trkpt lat="45.42237318386987" lon="4.869931663182422"><ele>230.66666666666666</ele><time>2026-04-25T14:49:28Z</time></trkpt><trkpt lat="45.42236551885327" lon="4.870071884937871"><ele>231.33333333333331</ele><time>2026-04-25T14:49:30Z</time></trkpt><trkpt lat="45.42232370247225" lon="4.870188828695976"><ele>232.0</ele><time>2026-04-25T14:49:32Z</time></trkpt><trkpt lat="45.42231681114379" lon="4.870342993062399"><ele>231.99999999999997</ele><time>2026-04-25T14:49:34Z</time></trkpt><trkpt lat="45.42233541765214" lon="4.87044492688338"><ele>232.0</ele><time>2026-04-25T14:49:35Z</time></trkpt><trkpt lat="45.42236976023587" lon="4.87056433285514"><ele>232.0</ele><time>2026-04-25T14:49:36Z</time></trkpt><trkpt lat="45.422395223534934" lon="4.8706771246230245"><ele>232.0</ele><time>2026-04-25T14:49:37Z</time></trkpt><trkpt lat="45.422416543290595" lon="4.870813484110792"><ele>231.99999999999997</ele><time>2026-04-25T14:49:38Z</time></trkpt><trkpt lat="45.42243882690185" lon="4.87093981413519"><ele>232.0</ele><time>2026-04-25T14:49:39Z</time></trkpt><trkpt lat="45.422433804337494" lon="4.871052272819826"><ele>232.16666666666666</ele><time>2026-04-25T14:49:40Z</time></trkpt><trkpt lat="45.42240580281772" lon="4.871174221662547"><ele>232.33333333333331</ele><time>2026-04-25T14:49:41Z</time></trkpt><trkpt lat="45.42236522203439" lon="4.8712707349699125"><ele>232.5</ele><time>2026-04-25T14:49:42Z</time></trkpt><trkpt lat="45.422329580649" lon="4.871364489125251"><ele>232.66666666666669</ele><time>2026-04-25T14:49:43Z</time></trkpt><trkpt lat="45.422274228187945" lon="4.871431909622381"><ele>232.83333333333334</ele><time>2026-04-25T14:49:44Z</time></trkpt><trkpt lat="45.42220809070584" lon="4.871489798690329"><ele>233.0</ele><time>2026-04-25T14:49:45Z</time></trkpt><trkpt lat="45.42212382993008" lon="4.8715137573829725"><ele>232.0</ele><time>2026-04-25T14:49:46Z</time></trkpt><trkpt lat="45.42201140490999" lon="4.871531452583827"><ele>231.0</ele><time>2026-04-25T14:49:47Z</time></trkpt><trkpt lat="45.42189242574526" lon="4.871552439893683"><ele>230.0</ele><time>2026-04-25T14:49:48Z</time></trkpt><trkpt lat="45.42178662732525" lon="4.871557494707116"><ele>229.0</ele><time>2026-04-25T14:49:49Z</time></trkpt><trkpt lat="45.42169715435509" lon="4.871549746396574"><ele>228.0</ele><time>2026-04-25T14:49:50Z</time></trkpt><trkpt lat="45.42162006552641" lon="4.87156800103486"><ele>228.0</ele><time>2026-04-25T14:49:51Z</time></trkpt><trkpt lat="45.421545709100215" lon="4.871620521435602"><ele>228.0</ele><time>2026-04-25T14:49:52Z</time></trkpt><trkpt lat="45.42147602660575" lon="4.871673523239575"><ele>228.0</ele><time>2026-04-25T14:49:53Z</time></trkpt><trkpt lat="45.421359596811044" lon="4.871735106602434"><ele>228.0</ele><time>2026-04-25T14:49:55Z</time></trkpt><trkpt lat="45.42130065910203" lon="4.871766915926966"><ele>228.0</ele><time>2026-04-25T14:49:56Z</time></trkpt><trkpt lat="45.421237512198836" lon="4.87180253885723"><ele>228.0</ele><time>2026-04-25T14:49:57Z</time></trkpt><trkpt lat="45.4211719723232" lon="4.871840075524686"><ele>228.0</ele><time>2026-04-25T14:49:58Z</time></trkpt><trkpt lat="45.42108951714223" lon="4.8718741200657805"><ele>228.0</ele><time>2026-04-25T14:49:59Z</time></trkpt><trkpt lat="45.42100610552959" lon="4.871897014061633"><ele>228.0</ele><time>2026-04-25T14:50:00Z</time></trkpt><trkpt lat="45.42093631327112" lon="4.871955127028309"><ele>228.0</ele><time>2026-04-25T14:50:01Z</time></trkpt><trkpt lat="45.42084564580795" lon="4.872015734990532"><ele>228.0</ele><time>2026-04-25T14:50:03Z</time></trkpt><trkpt lat="45.4207854240129" lon="4.872065025929271"><ele>228.0</ele><time>2026-04-25T14:50:05Z</time></trkpt><trkpt lat="45.42072243935806" lon="4.872124163012978"><ele>228.0</ele><time>2026-04-25T14:50:23Z</time></trkpt><trkpt lat="45.420700951748145" lon="4.872227943181336"><ele>228.0</ele><time>2026-04-25T14:50:26Z</time></trkpt><trkpt lat="45.420740668608076" lon="4.872131032059508"><ele>228.0</ele><time>2026-04-25T14:50:45Z</time></trkpt><trkpt lat="45.420857258288066" lon="4.872022261860197"><ele>228.0</ele><time>2026-04-25T14:50:48Z</time></trkpt><trkpt lat="45.4209264550044" lon="4.871970902026189"><ele>228.0</ele><time>2026-04-25T14:50:49Z</time></trkpt><trkpt lat="45.420987079314614" lon="4.871938545915526"><ele>228.0</ele><time>2026-04-25T14:50:50Z</time></trkpt><trkpt lat="45.42108174846317" lon="4.871851264866527"><ele>228.0</ele><time>2026-04-25T14:50:52Z</time></trkpt><trkpt lat="45.421208332402806" lon="4.871814585323597"><ele>228.0</ele><time>2026-04-25T14:50:55Z</time></trkpt><trkpt lat="45.42127613336927" lon="4.871782932776656"><ele>228.0</ele><time>2026-04-25T14:50:56Z</time></trkpt><trkpt lat="45.42135975126356" lon="4.871739973648174"><ele>228.0</ele><time>2026-04-25T14:50:57Z</time></trkpt><trkpt lat="45.42146681448861" lon="4.871678110089569"><ele>228.0</ele><time>2026-04-25T14:50:58Z</time></trkpt><trkpt lat="45.42157996674892" lon="4.87161689164596"><ele>228.0</ele><time>2026-04-25T14:50:59Z</time></trkpt><trkpt lat="45.421676725709446" lon="4.871566906865877"><ele>228.0</ele><time>2026-04-25T14:51:00Z</time></trkpt><trkpt lat="45.42175531843914" lon="4.8715316397012005"><ele>228.0</ele><time>2026-04-25T14:51:01Z</time></trkpt><trkpt lat="45.42183918303598" lon="4.871525090887223"><ele>228.0</ele><time>2026-04-25T14:51:02Z</time></trkpt><trkpt lat="45.4219345117137" lon="4.871536665720439"><ele>228.0</ele><time>2026-04-25T14:51:03Z</time></trkpt><trkpt lat="45.42201358393942" lon="4.87152971523264"><ele>228.0</ele><time>2026-04-25T14:51:04Z</time></trkpt><trkpt lat="45.42208294555216" lon="4.871521042904792"><ele>228.0</ele><time>2026-04-25T14:51:05Z</time></trkpt><trkpt lat="45.42219709715792" lon="4.871483539235068"><ele>228.0</ele><time>2026-04-25T14:51:07Z</time></trkpt><trkpt lat="45.422280465077066" lon="4.871454275396821"><ele>228.0</ele><time>2026-04-25T14:51:09Z</time></trkpt><trkpt lat="45.422146146939625" lon="4.871531873452962"><ele>228.0</ele><time>2026-04-25T14:51:26Z</time></trkpt><trkpt lat="45.42203183794561" lon="4.871517861888933"><ele>228.0</ele><time>2026-04-25T14:51:27Z</time></trkpt><trkpt lat="45.42191813521577" lon="4.871523225107453"><ele>228.0</ele><time>2026-04-25T14:51:28Z</time></trkpt><trkpt lat="45.42178836987234" lon="4.871518259258729"><ele>228.0</ele><time>2026-04-25T14:51:29Z</time></trkpt><trkpt lat="45.42168601655437" lon="4.871531355324903"><ele>228.0</ele><time>2026-04-25T14:51:30Z</time></trkpt><trkpt lat="45.4216089885886" lon="4.87154649569826"><ele>228.0</ele><time>2026-04-25T14:51:31Z</time></trkpt><trkpt lat="45.42154657723634" lon="4.871601429484918"><ele>228.0</ele><time>2026-04-25T14:51:32Z</time></trkpt><trkpt lat="45.421449064371316" lon="4.871671713234975"><ele>228.0</ele><time>2026-04-25T14:51:34Z</time></trkpt><trkpt lat="45.42132932834427" lon="4.871740307135952"><ele>228.0</ele><time>2026-04-25T14:51:36Z</time></trkpt><trkpt lat="45.42126295554333" lon="4.871766194976981"><ele>228.0</ele><time>2026-04-25T14:51:37Z</time></trkpt><trkpt lat="45.421180985068915" lon="4.871806788068894"><ele>228.0</ele><time>2026-04-25T14:51:38Z</time></trkpt><trkpt lat="45.42108708650551" lon="4.871871963199936"><ele>228.0</ele><time>2026-04-25T14:51:39Z</time></trkpt><trkpt lat="45.42098538253345" lon="4.871959871535211"><ele>228.0</ele><time>2026-04-25T14:51:40Z</time></trkpt><trkpt lat="45.420883516064215" lon="4.872035810542668"><ele>228.0</ele><time>2026-04-25T14:51:41Z</time></trkpt><trkpt lat="45.42080014758566" lon="4.872066932061238"><ele>228.0</ele><time>2026-04-25T14:51:42Z</time></trkpt><trkpt lat="45.42072339923326" lon="4.872177787012136"><ele>228.0</ele><time>2026-04-25T14:51:43Z</time></trkpt><trkpt lat="45.42063806887318" lon="4.872286003361431"><ele>228.0</ele><time>2026-04-25T14:51:44Z</time></trkpt><trkpt lat="45.42053363020199" lon="4.872467012943128"><ele>228.0</ele><time>2026-04-25T14:51:45Z</time></trkpt><trkpt lat="45.42043889955853" lon="4.872660335732542"><ele>228.0</ele><time>2026-04-25T14:51:46Z</time></trkpt><trkpt lat="45.42034943541557" lon="4.872847724459794"><ele>228.5</ele><time>2026-04-25T14:51:47Z</time></trkpt><trkpt lat="45.420266847183036" lon="4.873020879432879"><ele>229.0</ele><time>2026-04-25T14:51:48Z</time></trkpt><trkpt lat="45.42019623903289" lon="4.87316517707378"><ele>229.5</ele><time>2026-04-25T14:51:49Z</time></trkpt><trkpt lat="45.42012766497174" lon="4.8732870623937785"><ele>230.0</ele><time>2026-04-25T14:51:50Z</time></trkpt><trkpt lat="45.42006619021021" lon="4.873408188028697"><ele>229.75</ele><time>2026-04-25T14:51:51Z</time></trkpt><trkpt lat="45.41998941989479" lon="4.873550691750132"><ele>229.5</ele><time>2026-04-25T14:51:52Z</time></trkpt><trkpt lat="45.41991667238048" lon="4.873703216359062"><ele>229.25</ele><time>2026-04-25T14:51:53Z</time></trkpt><trkpt lat="45.41984940933793" lon="4.873831275704567"><ele>229.0</ele><time>2026-04-25T14:51:54Z</time></trkpt><trkpt lat="45.419803542423686" lon="4.8739520166032975"><ele>229.0</ele><time>2026-04-25T14:51:55Z</time></trkpt><trkpt lat="45.4197629905489" lon="4.874093173626087"><ele>228.99999999999997</ele><time>2026-04-25T14:51:56Z</time></trkpt><trkpt lat="45.41971858706946" lon="4.874240567141737"><ele>228.99999999999997</ele><time>2026-04-25T14:51:57Z</time></trkpt><trkpt lat="45.41967290862737" lon="4.87437834280377"><ele>229.0</ele><time>2026-04-25T14:51:58Z</time></trkpt><trkpt lat="45.41963907318578" lon="4.8745393339753225"><ele>229.0</ele><time>2026-04-25T14:51:59Z</time></trkpt><trkpt lat="45.419611056552256" lon="4.874675593111905"><ele>229.33333333333331</ele><time>2026-04-25T14:52:00Z</time></trkpt><trkpt lat="45.41958371223389" lon="4.874799034215242"><ele>229.66666666666666</ele><time>2026-04-25T14:52:01Z</time></trkpt><trkpt lat="45.41955669763629" lon="4.874903512117178"><ele>230.0</ele><time>2026-04-25T14:52:02Z</time></trkpt><trkpt lat="45.41954071874106" lon="4.874995199893939"><ele>230.33333333333331</ele><time>2026-04-25T14:52:03Z</time></trkpt><trkpt lat="45.41947882278604" lon="4.875081801863967"><ele>230.66666666666666</ele><time>2026-04-25T14:52:05Z</time></trkpt><trkpt lat="45.41953628714736" lon="4.875212148589671"><ele>231.0</ele><time>2026-04-25T14:52:08Z</time></trkpt><trkpt lat="45.41960894660928" lon="4.875299647023253"><ele>231.0</ele><time>2026-04-25T14:52:09Z</time></trkpt><trkpt lat="45.41971395306409" lon="4.875380015476261"><ele>231.0</ele><time>2026-04-25T14:52:10Z</time></trkpt><trkpt lat="45.419829222779505" lon="4.875447696312194"><ele>231.0</ele><time>2026-04-25T14:52:11Z</time></trkpt><trkpt lat="45.4199681206509" lon="4.87549992661201"><ele>231.0</ele><time>2026-04-25T14:52:12Z</time></trkpt><trkpt lat="45.42012962050418" lon="4.875543279174858"><ele>231.0</ele><time>2026-04-25T14:52:13Z</time></trkpt><trkpt lat="45.42029706816707" lon="4.875568773428942"><ele>231.0</ele><time>2026-04-25T14:52:14Z</time></trkpt><trkpt lat="45.42048244620588" lon="4.875591243956128"><ele>231.0</ele><time>2026-04-25T14:52:15Z</time></trkpt><trkpt lat="45.42066069587416" lon="4.875609904360416"><ele>231.33333333333331</ele><time>2026-04-25T14:52:16Z</time></trkpt><trkpt lat="45.42085175914108" lon="4.875630121084961"><ele>231.66666666666666</ele><time>2026-04-25T14:52:17Z</time></trkpt><trkpt lat="45.42105541014324" lon="4.8756636112663205"><ele>232.0</ele><time>2026-04-25T14:52:18Z</time></trkpt><trkpt lat="45.421261729844154" lon="4.87569972450385"><ele>232.0</ele><time>2026-04-25T14:52:19Z</time></trkpt><trkpt lat="45.42146702606663" lon="4.875733741041521"><ele>232.0</ele><time>2026-04-25T14:52:20Z</time></trkpt><trkpt lat="45.42165999554119" lon="4.875762575095301"><ele>232.0</ele><time>2026-04-25T14:52:21Z</time></trkpt><trkpt lat="45.42184804453603" lon="4.875781858748122"><ele>232.0</ele><time>2026-04-25T14:52:22Z</time></trkpt><trkpt lat="45.42202739629226" lon="4.875797751111736"><ele>232.0</ele><time>2026-04-25T14:52:23Z</time></trkpt><trkpt lat="45.42219846554296" lon="4.875847492470128"><ele>232.0</ele><time>2026-04-25T14:52:24Z</time></trkpt><trkpt lat="45.42235967642039" lon="4.875871434996445"><ele>231.66666666666666</ele><time>2026-04-25T14:52:25Z</time></trkpt><trkpt lat="45.422522740062405" lon="4.875878644430845"><ele>231.33333333333331</ele><time>2026-04-25T14:52:26Z</time></trkpt><trkpt lat="45.42268140000326" lon="4.875899971698873"><ele>231.0</ele><time>2026-04-25T14:52:27Z</time></trkpt><trkpt lat="45.42283662461395" lon="4.8759211127568705"><ele>232.0</ele><time>2026-04-25T14:52:28Z</time></trkpt><trkpt lat="45.42298873277895" lon="4.875941096951813"><ele>233.0</ele><time>2026-04-25T14:52:29Z</time></trkpt><trkpt lat="45.423138580833196" lon="4.87596839393373"><ele>234.0</ele><time>2026-04-25T14:52:30Z</time></trkpt><trkpt lat="45.42328636362022" lon="4.875989091245626"><ele>234.0</ele><time>2026-04-25T14:52:31Z</time></trkpt><trkpt lat="45.42343394780717" lon="4.876007414763155"><ele>234.0</ele><time>2026-04-25T14:52:32Z</time></trkpt><trkpt lat="45.423588566392645" lon="4.876030329560239"><ele>234.0</ele><time>2026-04-25T14:52:33Z</time></trkpt><trkpt lat="45.423752887673764" lon="4.876059013035757"><ele>236.0</ele><time>2026-04-25T14:52:34Z</time></trkpt><trkpt lat="45.423928040433736" lon="4.876091576937522"><ele>238.0</ele><time>2026-04-25T14:52:35Z</time></trkpt><trkpt lat="45.42410228988899" lon="4.876111791650322"><ele>240.0</ele><time>2026-04-25T14:52:36Z</time></trkpt><trkpt lat="45.42428129936863" lon="4.876139800397756"><ele>240.0</ele><time>2026-04-25T14:52:37Z</time></trkpt><trkpt lat="45.424466330892216" lon="4.876169803997105"><ele>240.0</ele><time>2026-04-25T14:52:38Z</time></trkpt><trkpt lat="45.42485330195106" lon="4.876227558887942"><ele>242.0</ele><time>2026-04-25T14:52:40Z</time></trkpt><trkpt lat="45.425052782158176" lon="4.876257175319451"><ele>244.0</ele><time>2026-04-25T14:52:41Z</time></trkpt><trkpt lat="45.425238715604415" lon="4.876269035685782"><ele>246.0</ele><time>2026-04-25T14:52:42Z</time></trkpt><trkpt lat="45.42539416221192" lon="4.87626301880928"><ele>247.33333333333331</ele><time>2026-04-25T14:52:43Z</time></trkpt><trkpt lat="45.425543327546535" lon="4.876221265795054"><ele>248.66666666666666</ele><time>2026-04-25T14:52:44Z</time></trkpt><trkpt lat="45.425693920104024" lon="4.876149300859193"><ele>250.0</ele><time>2026-04-25T14:52:45Z</time></trkpt><trkpt lat="45.42583422066649" lon="4.876048643403536"><ele>250.0</ele><time>2026-04-25T14:52:46Z</time></trkpt><trkpt lat="45.42597880868677" lon="4.875948563927836"><ele>250.0</ele><time>2026-04-25T14:52:47Z</time></trkpt><trkpt lat="45.4261421559532" lon="4.875863041597638"><ele>250.0</ele><time>2026-04-25T14:52:48Z</time></trkpt><trkpt lat="45.42632221814887" lon="4.87579724152903"><ele>251.0</ele><time>2026-04-25T14:52:49Z</time></trkpt><trkpt lat="45.426499861162256" lon="4.875741989269141"><ele>252.0</ele><time>2026-04-25T14:52:50Z</time></trkpt><trkpt lat="45.42668714122096" lon="4.875685116891958"><ele>253.0</ele><time>2026-04-25T14:52:51Z</time></trkpt><trkpt lat="45.42688609261488" lon="4.875628294468289"><ele>253.0</ele><time>2026-04-25T14:52:52Z</time></trkpt><trkpt lat="45.42708116031435" lon="4.875578651984766"><ele>253.0</ele><time>2026-04-25T14:52:53Z</time></trkpt><trkpt lat="45.427249286118595" lon="4.87553086090255"><ele>253.0</ele><time>2026-04-25T14:52:54Z</time></trkpt><trkpt lat="45.42739144230989" lon="4.875489197469336"><ele>253.2</ele><time>2026-04-25T14:52:55Z</time></trkpt><trkpt lat="45.42751745416302" lon="4.875445265761764"><ele>253.4</ele><time>2026-04-25T14:52:56Z</time></trkpt><trkpt lat="45.42761896465894" lon="4.875417005655635"><ele>253.59999999999997</ele><time>2026-04-25T14:52:57Z</time></trkpt><trkpt lat="45.42771657136623" lon="4.875393576723237"><ele>253.79999999999998</ele><time>2026-04-25T14:52:58Z</time></trkpt><trkpt lat="45.427795997051675" lon="4.875382941679386"><ele>254.0</ele><time>2026-04-25T14:52:59Z</time></trkpt><trkpt lat="45.427864464508254" lon="4.875379014600801"><ele>254.0</ele><time>2026-04-25T14:53:00Z</time></trkpt><trkpt lat="45.42793561695344" lon="4.8753661784503635"><ele>253.99999999999997</ele><time>2026-04-25T14:53:02Z</time></trkpt><trkpt lat="45.428050417438754" lon="4.8753169438471575"><ele>253.99999999999997</ele><time>2026-04-25T14:53:10Z</time></trkpt><trkpt lat="45.42813560606726" lon="4.8752565187560934"><ele>254.0</ele><time>2026-04-25T14:53:11Z</time></trkpt><trkpt lat="45.4282440415081" lon="4.875210103258481"><ele>254.0</ele><time>2026-04-25T14:53:12Z</time></trkpt><trkpt lat="45.42837461470659" lon="4.875185430647346"><ele>254.0</ele><time>2026-04-25T14:53:13Z</time></trkpt><trkpt lat="45.428524473188475" lon="4.875159675095774"><ele>254.0</ele><time>2026-04-25T14:53:14Z</time></trkpt><trkpt lat="45.42868403174932" lon="4.875126805099309"><ele>254.0</ele><time>2026-04-25T14:53:15Z</time></trkpt><trkpt lat="45.428854598985346" lon="4.875094049957279"><ele>253.75</ele><time>2026-04-25T14:53:16Z</time></trkpt><trkpt lat="45.429019187206585" lon="4.8750632829441"><ele>253.5</ele><time>2026-04-25T14:53:17Z</time></trkpt><trkpt lat="45.42915644849858" lon="4.875041302651905"><ele>253.25</ele><time>2026-04-25T14:53:18Z</time></trkpt><trkpt lat="45.429270771161235" lon="4.8750390286241405"><ele>253.0</ele><time>2026-04-25T14:53:19Z</time></trkpt><trkpt lat="45.42936148967966" lon="4.8750306307233275"><ele>252.99999999999997</ele><time>2026-04-25T14:53:20Z</time></trkpt><trkpt lat="45.42942801655333" lon="4.875016604916849"><ele>253.0</ele><time>2026-04-25T14:53:21Z</time></trkpt><trkpt lat="45.429518041109425" lon="4.8750111114524435"><ele>253.0</ele><time>2026-04-25T14:53:23Z</time></trkpt><trkpt lat="45.429567466584984" lon="4.8751002910478505"><ele>253.0</ele><time>2026-04-25T14:53:25Z</time></trkpt><trkpt lat="45.42950413855308" lon="4.875088342031674"><ele>252.99999999999997</ele><time>2026-04-25T14:53:27Z</time></trkpt><trkpt lat="45.42958174848375" lon="4.875073867193175"><ele>253.0</ele><time>2026-04-25T14:53:35Z</time></trkpt><trkpt lat="45.429651980598436" lon="4.874964735966835"><ele>253.0</ele><time>2026-04-25T14:53:38Z</time></trkpt><trkpt lat="45.42974285712985" lon="4.874935791933299"><ele>253.0</ele><time>2026-04-25T14:53:39Z</time></trkpt><trkpt lat="45.42986631631023" lon="4.874911713066564"><ele>253.0</ele><time>2026-04-25T14:53:40Z</time></trkpt><trkpt lat="45.429991195287215" lon="4.874852176156514"><ele>253.0</ele><time>2026-04-25T14:53:41Z</time></trkpt><trkpt lat="45.430138381662395" lon="4.874797724912145"><ele>253.0</ele><time>2026-04-25T14:53:42Z</time></trkpt><trkpt lat="45.43029550310301" lon="4.874725078659232"><ele>253.0</ele><time>2026-04-25T14:53:43Z</time></trkpt><trkpt lat="45.430463356885646" lon="4.874649320034876"><ele>253.0</ele><time>2026-04-25T14:53:44Z</time></trkpt><trkpt lat="45.43064151293409" lon="4.87457102406669"><ele>253.33333333333331</ele><time>2026-04-25T14:53:45Z</time></trkpt><trkpt lat="45.430826285348175" lon="4.874499019988185"><ele>253.66666666666669</ele><time>2026-04-25T14:53:46Z</time></trkpt><trkpt lat="45.43102043066461" lon="4.87440053705942"><ele>254.0</ele><time>2026-04-25T14:53:47Z</time></trkpt><trkpt lat="45.431215924202554" lon="4.874281437121237"><ele>253.66666666666669</ele><time>2026-04-25T14:53:48Z</time></trkpt><trkpt lat="45.431383111663656" lon="4.874154036883095"><ele>253.33333333333331</ele><time>2026-04-25T14:53:49Z</time></trkpt><trkpt lat="45.431520190062116" lon="4.874019403682297"><ele>253.0</ele><time>2026-04-25T14:53:50Z</time></trkpt><trkpt lat="45.431637642186" lon="4.87388731119831"><ele>253.0</ele><time>2026-04-25T14:53:51Z</time></trkpt><trkpt lat="45.43175635881992" lon="4.873772763203469"><ele>253.0</ele><time>2026-04-25T14:53:52Z</time></trkpt><trkpt lat="45.431877870238615" lon="4.873660343334484"><ele>253.0</ele><time>2026-04-25T14:53:53Z</time></trkpt><trkpt lat="45.43201957884979" lon="4.873540657161763"><ele>253.0</ele><time>2026-04-25T14:53:54Z</time></trkpt><trkpt lat="45.43215528822189" lon="4.8734316350186475"><ele>253.0</ele><time>2026-04-25T14:53:55Z</time></trkpt><trkpt lat="45.43227135304534" lon="4.873335697929776"><ele>253.0</ele><time>2026-04-25T14:53:56Z</time></trkpt><trkpt lat="45.432371652918896" lon="4.873266338194262"><ele>253.0</ele><time>2026-04-25T14:53:57Z</time></trkpt><trkpt lat="45.432452324517065" lon="4.873214210789764"><ele>253.0</ele><time>2026-04-25T14:53:58Z</time></trkpt><trkpt lat="45.43255201471663" lon="4.873176755384346"><ele>253.0</ele><time>2026-04-25T14:53:59Z</time></trkpt><trkpt lat="45.43267504565058" lon="4.87314126115311"><ele>253.0</ele><time>2026-04-25T14:54:00Z</time></trkpt><trkpt lat="45.43281396971807" lon="4.873097343011548"><ele>253.0</ele><time>2026-04-25T14:54:01Z</time></trkpt><trkpt lat="45.43295474051137" lon="4.873057265633268"><ele>253.25</ele><time>2026-04-25T14:54:02Z</time></trkpt><trkpt lat="45.433091761147054" lon="4.873017257984739"><ele>253.5</ele><time>2026-04-25T14:54:03Z</time></trkpt><trkpt lat="45.4332255968576" lon="4.872993861472917"><ele>253.75</ele><time>2026-04-25T14:54:04Z</time></trkpt><trkpt lat="45.43335534653338" lon="4.872986062607681"><ele>254.0</ele><time>2026-04-25T14:54:05Z</time></trkpt><trkpt lat="45.43348586953054" lon="4.8730005021918945"><ele>254.0</ele><time>2026-04-25T14:54:06Z</time></trkpt><trkpt lat="45.43361655300622" lon="4.873022290132832"><ele>254.0</ele><time>2026-04-25T14:54:07Z</time></trkpt><trkpt lat="45.433758965845016" lon="4.873044388995226"><ele>254.0</ele><time>2026-04-25T14:54:08Z</time></trkpt><trkpt lat="45.43390721844151" lon="4.873045750155246"><ele>254.0</ele><time>2026-04-25T14:54:09Z</time></trkpt><trkpt lat="45.4340727151787" lon="4.8730374653699835"><ele>254.0</ele><time>2026-04-25T14:54:10Z</time></trkpt><trkpt lat="45.43425078238908" lon="4.873016320211642"><ele>254.0</ele><time>2026-04-25T14:54:11Z</time></trkpt><trkpt lat="45.434421410612764" lon="4.87298772802791"><ele>254.0</ele><time>2026-04-25T14:54:12Z</time></trkpt><trkpt lat="45.4345773551811" lon="4.872965926956531"><ele>254.0</ele><time>2026-04-25T14:54:13Z</time></trkpt><trkpt lat="45.43472339657753" lon="4.872954090304325"><ele>254.0</ele><time>2026-04-25T14:54:14Z</time></trkpt><trkpt lat="45.43486357641369" lon="4.87293802519752"><ele>254.0</ele><time>2026-04-25T14:54:15Z</time></trkpt><trkpt lat="45.43499786969092" lon="4.872915480573952"><ele>254.0</ele><time>2026-04-25T14:54:16Z</time></trkpt><trkpt lat="45.435120366951615" lon="4.872897529900384"><ele>254.0</ele><time>2026-04-25T14:54:17Z</time></trkpt><trkpt lat="45.435241764929884" lon="4.872874067686108"><ele>253.99999999999997</ele><time>2026-04-25T14:54:18Z</time></trkpt><trkpt lat="45.43535321184488" lon="4.872839947917576"><ele>253.99999999999997</ele><time>2026-04-25T14:54:19Z</time></trkpt><trkpt lat="45.435460504387834" lon="4.8728052349226765"><ele>254.0</ele><time>2026-04-25T14:54:20Z</time></trkpt><trkpt lat="45.43555596543223" lon="4.8727742243983805"><ele>254.0</ele><time>2026-04-25T14:54:21Z</time></trkpt><trkpt lat="45.43564728264976" lon="4.872748251341299"><ele>253.79999999999998</ele><time>2026-04-25T14:54:22Z</time></trkpt><trkpt lat="45.435730843698806" lon="4.8727183735287065"><ele>253.59999999999997</ele><time>2026-04-25T14:54:23Z</time></trkpt><trkpt lat="45.43581772350532" lon="4.872692214733456"><ele>253.4</ele><time>2026-04-25T14:54:24Z</time></trkpt><trkpt lat="45.43590543039483" lon="4.872660889257029"><ele>253.2</ele><time>2026-04-25T14:54:25Z</time></trkpt><trkpt lat="45.435996855977535" lon="4.872635726165029"><ele>253.0</ele><time>2026-04-25T14:54:26Z</time></trkpt><trkpt lat="45.43609731140087" lon="4.872592951733083"><ele>253.0</ele><time>2026-04-25T14:54:27Z</time></trkpt><trkpt lat="45.43620791052316" lon="4.872556890124088"><ele>253.0</ele><time>2026-04-25T14:54:28Z</time></trkpt><trkpt lat="45.43634330875318" lon="4.872511683126328"><ele>253.0</ele><time>2026-04-25T14:54:29Z</time></trkpt><trkpt lat="45.4364913380311" lon="4.872480594176953"><ele>253.0</ele><time>2026-04-25T14:54:30Z</time></trkpt><trkpt lat="45.436644548323976" lon="4.872406637248166"><ele>253.0</ele><time>2026-04-25T14:54:31Z</time></trkpt><trkpt lat="45.436804012962085" lon="4.8723490670077645"><ele>253.0</ele><time>2026-04-25T14:54:32Z</time></trkpt><trkpt lat="45.43697494358984" lon="4.872282171347999"><ele>253.0</ele><time>2026-04-25T14:54:33Z</time></trkpt><trkpt lat="45.437147857700346" lon="4.872213021172615"><ele>253.33333333333331</ele><time>2026-04-25T14:54:34Z</time></trkpt><trkpt lat="45.43731985682424" lon="4.872138706685708"><ele>253.66666666666669</ele><time>2026-04-25T14:54:35Z</time></trkpt><trkpt lat="45.437500031781994" lon="4.872060336125431"><ele>254.0</ele><time>2026-04-25T14:54:36Z</time></trkpt><trkpt lat="45.437695320092146" lon="4.871979091180586"><ele>254.0</ele><time>2026-04-25T14:54:37Z</time></trkpt><trkpt lat="45.43789634889534" lon="4.871894314097714"><ele>254.0</ele><time>2026-04-25T14:54:38Z</time></trkpt><trkpt lat="45.43807760247893" lon="4.871809664339352"><ele>254.0</ele><time>2026-04-25T14:54:39Z</time></trkpt><trkpt lat="45.43823758504418" lon="4.871739145673894"><ele>253.66666666666669</ele><time>2026-04-25T14:54:40Z</time></trkpt><trkpt lat="45.43838482073587" lon="4.871678744754291"><ele>253.33333333333331</ele><time>2026-04-25T14:54:41Z</time></trkpt><trkpt lat="45.43854113315085" lon="4.8716086318234675"><ele>253.0</ele><time>2026-04-25T14:54:42Z</time></trkpt><trkpt lat="45.43870908786376" lon="4.871540168377691"><ele>253.66666666666666</ele><time>2026-04-25T14:54:43Z</time></trkpt><trkpt lat="45.43888529084677" lon="4.87146662965969"><ele>254.33333333333331</ele><time>2026-04-25T14:54:44Z</time></trkpt><trkpt lat="45.43906734494103" lon="4.871388363165004"><ele>255.0</ele><time>2026-04-25T14:54:45Z</time></trkpt><trkpt lat="45.439239183729455" lon="4.87131046354515"><ele>255.0</ele><time>2026-04-25T14:54:46Z</time></trkpt><trkpt lat="45.439384776620486" lon="4.871249501619963"><ele>255.0</ele><time>2026-04-25T14:54:47Z</time></trkpt><trkpt lat="45.439516760130275" lon="4.8711869877409795"><ele>255.0</ele><time>2026-04-25T14:54:48Z</time></trkpt><trkpt lat="45.43964135350166" lon="4.871146448587328"><ele>255.0</ele><time>2026-04-25T14:54:49Z</time></trkpt><trkpt lat="45.43976345323674" lon="4.871103252656634"><ele>255.0</ele><time>2026-04-25T14:54:50Z</time></trkpt><trkpt lat="45.43988478578624" lon="4.871081596116063"><ele>255.0</ele><time>2026-04-25T14:54:51Z</time></trkpt><trkpt lat="45.44001812710389" lon="4.871071362284838"><ele>255.0</ele><time>2026-04-25T14:54:52Z</time></trkpt><trkpt lat="45.44015093181431" lon="4.871078351643196"><ele>255.0</ele><time>2026-04-25T14:54:53Z</time></trkpt><trkpt lat="45.44028696701537" lon="4.871088778949697"><ele>255.0</ele><time>2026-04-25T14:54:54Z</time></trkpt><trkpt lat="45.440425012182246" lon="4.87110615793599"><ele>255.0</ele><time>2026-04-25T14:54:55Z</time></trkpt><trkpt lat="45.44055064388309" lon="4.871128365628029"><ele>255.0</ele><time>2026-04-25T14:54:56Z</time></trkpt><trkpt lat="45.44067199039921" lon="4.871144648844556"><ele>255.0</ele><time>2026-04-25T14:54:57Z</time></trkpt><trkpt lat="45.44080032338653" lon="4.871154851620711"><ele>255.5</ele><time>2026-04-25T14:54:58Z</time></trkpt><trkpt lat="45.44092229233157" lon="4.871175650396006"><ele>256.0</ele><time>2026-04-25T14:54:59Z</time></trkpt><trkpt lat="45.44104861708737" lon="4.8711916720476856"><ele>256.5</ele><time>2026-04-25T14:55:00Z</time></trkpt><trkpt lat="45.44118454260788" lon="4.8712003905068055"><ele>257.0</ele><time>2026-04-25T14:55:01Z</time></trkpt><trkpt lat="45.44131385043184" lon="4.871213026856073"><ele>257.25</ele><time>2026-04-25T14:55:02Z</time></trkpt><trkpt lat="45.44144596638855" lon="4.871250322901667"><ele>257.5</ele><time>2026-04-25T14:55:03Z</time></trkpt><trkpt lat="45.44159325202752" lon="4.871251559208633"><ele>257.75</ele><time>2026-04-25T14:55:04Z</time></trkpt><trkpt lat="45.44173746741129" lon="4.8712607472084"><ele>258.0</ele><time>2026-04-25T14:55:05Z</time></trkpt><trkpt lat="45.44187401065152" lon="4.8712763630978495"><ele>258.0</ele><time>2026-04-25T14:55:06Z</time></trkpt><trkpt lat="45.442003659716704" lon="4.871293239495945"><ele>258.0</ele><time>2026-04-25T14:55:07Z</time></trkpt><trkpt lat="45.442133121302774" lon="4.8713086239867796"><ele>258.0</ele><time>2026-04-25T14:55:08Z</time></trkpt><trkpt lat="45.442269508724465" lon="4.87132323540547"><ele>258.0</ele><time>2026-04-25T14:55:09Z</time></trkpt><trkpt lat="45.44240812919429" lon="4.871341026293197"><ele>258.75</ele><time>2026-04-25T14:55:10Z</time></trkpt><trkpt lat="45.442531499586686" lon="4.871358954751531"><ele>259.5</ele><time>2026-04-25T14:55:11Z</time></trkpt><trkpt lat="45.44264982603135" lon="4.8713793216490595"><ele>260.25</ele><time>2026-04-25T14:55:12Z</time></trkpt><trkpt lat="45.442781828983286" lon="4.871400174238488"><ele>261.0</ele><time>2026-04-25T14:55:13Z</time></trkpt><trkpt lat="45.442922177642714" lon="4.871436112501557"><ele>261.25</ele><time>2026-04-25T14:55:14Z</time></trkpt><trkpt lat="45.443049432323576" lon="4.8714819497314785"><ele>261.5</ele><time>2026-04-25T14:55:15Z</time></trkpt><trkpt lat="45.443168625339844" lon="4.87153052586446"><ele>261.75</ele><time>2026-04-25T14:55:16Z</time></trkpt><trkpt lat="45.44329293595544" lon="4.871580694000022"><ele>262.0</ele><time>2026-04-25T14:55:17Z</time></trkpt><trkpt lat="45.443422472930116" lon="4.871642920583757"><ele>262.0</ele><time>2026-04-25T14:55:18Z</time></trkpt><trkpt lat="45.44356955709514" lon="4.8716980701288035"><ele>262.0</ele><time>2026-04-25T14:55:19Z</time></trkpt><trkpt lat="45.44371995969043" lon="4.87173427688956"><ele>262.0</ele><time>2026-04-25T14:55:20Z</time></trkpt><trkpt lat="45.44386922144006" lon="4.8717504504148765"><ele>261.66666666666663</ele><time>2026-04-25T14:55:21Z</time></trkpt><trkpt lat="45.4440257333559" lon="4.871729532527624"><ele>261.3333333333333</ele><time>2026-04-25T14:55:22Z</time></trkpt><trkpt lat="45.44418966302045" lon="4.8716707588857755"><ele>261.0</ele><time>2026-04-25T14:55:23Z</time></trkpt><trkpt lat="45.44435378135229" lon="4.871595183446637"><ele>261.0</ele><time>2026-04-25T14:55:24Z</time></trkpt><trkpt lat="45.44451401552436" lon="4.871513674991525"><ele>261.0</ele><time>2026-04-25T14:55:25Z</time></trkpt><trkpt lat="45.44467882859584" lon="4.871478641000713"><ele>261.0</ele><time>2026-04-25T14:55:26Z</time></trkpt><trkpt lat="45.44480906802213" lon="4.871379638383015"><ele>261.75</ele><time>2026-04-25T14:55:27Z</time></trkpt><trkpt lat="45.444950473331794" lon="4.871344069294801"><ele>262.5</ele><time>2026-04-25T14:55:28Z</time></trkpt><trkpt lat="45.44507717693793" lon="4.871261086104974"><ele>263.25</ele><time>2026-04-25T14:55:29Z</time></trkpt><trkpt lat="45.44520557464687" lon="4.871176572874889"><ele>264.0</ele><time>2026-04-25T14:55:30Z</time></trkpt><trkpt lat="45.44533168661665" lon="4.8710667670550745"><ele>263.3333333333333</ele><time>2026-04-25T14:55:31Z</time></trkpt><trkpt lat="45.44544898371996" lon="4.8709065373428935"><ele>262.66666666666663</ele><time>2026-04-25T14:55:32Z</time></trkpt><trkpt lat="45.44555958836126" lon="4.870705627618107"><ele>262.0</ele><time>2026-04-25T14:55:33Z</time></trkpt><trkpt lat="45.44566578408172" lon="4.870497871926572"><ele>261.75</ele><time>2026-04-25T14:55:34Z</time></trkpt><trkpt lat="45.445786797571536" lon="4.870366772559957"><ele>261.5</ele><time>2026-04-25T14:55:35Z</time></trkpt><trkpt lat="45.44589808743641" lon="4.870253533551181"><ele>261.25</ele><time>2026-04-25T14:55:36Z</time></trkpt><trkpt lat="45.4460255411561" lon="4.870172152513323"><ele>261.0</ele><time>2026-04-25T14:55:37Z</time></trkpt><trkpt lat="45.44617174516294" lon="4.870112712817758"><ele>260.0</ele><time>2026-04-25T14:55:38Z</time></trkpt><trkpt lat="45.446348013391116" lon="4.870074459847584"><ele>259.0</ele><time>2026-04-25T14:55:39Z</time></trkpt><trkpt lat="45.44653550499675" lon="4.870060028121621"><ele>258.0</ele><time>2026-04-25T14:55:40Z</time></trkpt><trkpt lat="45.44673916619076" lon="4.87003369876141"><ele>258.0</ele><time>2026-04-25T14:55:41Z</time></trkpt><trkpt lat="45.44694973361893" lon="4.870040115885838"><ele>258.0</ele><time>2026-04-25T14:55:42Z</time></trkpt><trkpt lat="45.44715324797219" lon="4.870054448965186"><ele>258.0</ele><time>2026-04-25T14:55:43Z</time></trkpt><trkpt lat="45.447350792991585" lon="4.870081705678519"><ele>259.3333333333333</ele><time>2026-04-25T14:55:44Z</time></trkpt><trkpt lat="45.447536045584336" lon="4.870117621614289"><ele>260.66666666666663</ele><time>2026-04-25T14:55:45Z</time></trkpt><trkpt lat="45.447714804369724" lon="4.870175029918979"><ele>262.0</ele><time>2026-04-25T14:55:46Z</time></trkpt><trkpt lat="45.447877915500555" lon="4.870283834808939"><ele>261.66666666666663</ele><time>2026-04-25T14:55:47Z</time></trkpt><trkpt lat="45.44803668780623" lon="4.8703945977500975"><ele>261.3333333333333</ele><time>2026-04-25T14:55:48Z</time></trkpt><trkpt lat="45.44819787532958" lon="4.8704901472915125"><ele>261.0</ele><time>2026-04-25T14:55:49Z</time></trkpt><trkpt lat="45.44834540143461" lon="4.8706218381006625"><ele>261.0</ele><time>2026-04-25T14:55:50Z</time></trkpt><trkpt lat="45.44847402324334" lon="4.870783917088849"><ele>261.0</ele><time>2026-04-25T14:55:51Z</time></trkpt><trkpt lat="45.44858897447997" lon="4.870940373173163"><ele>261.0</ele><time>2026-04-25T14:55:52Z</time></trkpt><trkpt lat="45.44869339174933" lon="4.871102726751315"><ele>261.0</ele><time>2026-04-25T14:55:53Z</time></trkpt><trkpt lat="45.448798367866395" lon="4.871249711301079"><ele>261.0</ele><time>2026-04-25T14:55:54Z</time></trkpt><trkpt lat="45.44889722817329" lon="4.871426442848247"><ele>261.0</ele><time>2026-04-25T14:55:55Z</time></trkpt><trkpt lat="45.448995436320146" lon="4.8715902522703205"><ele>261.0</ele><time>2026-04-25T14:55:56Z</time></trkpt><trkpt lat="45.44909678323011" lon="4.871728404772745"><ele>261.0</ele><time>2026-04-25T14:55:57Z</time></trkpt><trkpt lat="45.449199981516266" lon="4.87185510107234"><ele>261.0</ele><time>2026-04-25T14:55:58Z</time></trkpt><trkpt lat="45.44930638500369" lon="4.871977640581209"><ele>261.0</ele><time>2026-04-25T14:55:59Z</time></trkpt><trkpt lat="45.449412976461765" lon="4.872097640480496"><ele>261.5</ele><time>2026-04-25T14:56:00Z</time></trkpt><trkpt lat="45.449516193916274" lon="4.872215488165949"><ele>262.0</ele><time>2026-04-25T14:56:01Z</time></trkpt><trkpt lat="45.44961325300964" lon="4.872300496790012"><ele>262.5</ele><time>2026-04-25T14:56:02Z</time></trkpt><trkpt lat="45.44971216689867" lon="4.872363200058278"><ele>263.0</ele><time>2026-04-25T14:56:03Z</time></trkpt><trkpt lat="45.449824830633155" lon="4.872375948460221"><ele>263.0</ele><time>2026-04-25T14:56:04Z</time></trkpt><trkpt lat="45.44994085981171" lon="4.872345218702789"><ele>263.0</ele><time>2026-04-25T14:56:05Z</time></trkpt><trkpt lat="45.45004554159051" lon="4.8722736401915645"><ele>263.0</ele><time>2026-04-25T14:56:06Z</time></trkpt><trkpt lat="45.4501366387311" lon="4.872152438995775"><ele>263.0</ele><time>2026-04-25T14:56:07Z</time></trkpt><trkpt lat="45.450192100554" lon="4.871997642300335"><ele>263.0</ele><time>2026-04-25T14:56:08Z</time></trkpt><trkpt lat="45.45024948972597" lon="4.871849134757575"><ele>263.0</ele><time>2026-04-25T14:56:09Z</time></trkpt><trkpt lat="45.450333483151894" lon="4.8717316899655545"><ele>263.0</ele><time>2026-04-25T14:56:10Z</time></trkpt><trkpt lat="45.45042818148526" lon="4.871608241607417"><ele>263.0</ele><time>2026-04-25T14:56:11Z</time></trkpt><trkpt lat="45.450550288715725" lon="4.871509120642908"><ele>262.33333333333337</ele><time>2026-04-25T14:56:12Z</time></trkpt><trkpt lat="45.45069663046987" lon="4.871432956963446"><ele>261.6666666666667</ele><time>2026-04-25T14:56:13Z</time></trkpt><trkpt lat="45.450861259062734" lon="4.871331340895091"><ele>261.0</ele><time>2026-04-25T14:56:14Z</time></trkpt><trkpt lat="45.451027573583815" lon="4.871269150858538"><ele>261.0</ele><time>2026-04-25T14:56:15Z</time></trkpt><trkpt lat="45.451197681354245" lon="4.871186622820957"><ele>261.0</ele><time>2026-04-25T14:56:16Z</time></trkpt><trkpt lat="45.4513725653971" lon="4.8710866041188465"><ele>261.0</ele><time>2026-04-25T14:56:17Z</time></trkpt><trkpt lat="45.45153444433632" lon="4.8709675317291925"><ele>262.3333333333333</ele><time>2026-04-25T14:56:18Z</time></trkpt><trkpt lat="45.45167933395323" lon="4.870832968714609"><ele>263.66666666666663</ele><time>2026-04-25T14:56:19Z</time></trkpt><trkpt lat="45.451815071008795" lon="4.870708416178912"><ele>265.0</ele><time>2026-04-25T14:56:20Z</time></trkpt><trkpt lat="45.451942192673336" lon="4.8705914978660845"><ele>265.0</ele><time>2026-04-25T14:56:21Z</time></trkpt><trkpt lat="45.452063988995846" lon="4.870484120040661"><ele>265.0</ele><time>2026-04-25T14:56:22Z</time></trkpt><trkpt lat="45.452187358482945" lon="4.870371498712441"><ele>265.0</ele><time>2026-04-25T14:56:23Z</time></trkpt><trkpt lat="45.45232127976936" lon="4.870286080968911"><ele>265.0</ele><time>2026-04-25T14:56:24Z</time></trkpt><trkpt lat="45.45244826797987" lon="4.870163627797217"><ele>267.0</ele><time>2026-04-25T14:56:25Z</time></trkpt><trkpt lat="45.45260561705778" lon="4.870099182943321"><ele>269.0</ele><time>2026-04-25T14:56:26Z</time></trkpt><trkpt lat="45.45276140530125" lon="4.870021026901914"><ele>271.0</ele><time>2026-04-25T14:56:27Z</time></trkpt><trkpt lat="45.4529235832394" lon="4.869929848415454"><ele>272.3333333333333</ele><time>2026-04-25T14:56:28Z</time></trkpt><trkpt lat="45.453098585682795" lon="4.869858690542979"><ele>273.6666666666667</ele><time>2026-04-25T14:56:29Z</time></trkpt><trkpt lat="45.453281285301905" lon="4.86978721226977"><ele>275.0</ele><time>2026-04-25T14:56:30Z</time></trkpt><trkpt lat="45.453455733705084" lon="4.86972666536694"><ele>275.0</ele><time>2026-04-25T14:56:31Z</time></trkpt><trkpt lat="45.45359409776009" lon="4.869678628935902"><ele>275.0</ele><time>2026-04-25T14:56:32Z</time></trkpt><trkpt lat="45.4537020941191" lon="4.869646121452698"><ele>275.0</ele><time>2026-04-25T14:56:33Z</time></trkpt><trkpt lat="45.45379733717965" lon="4.869627845013964"><ele>275.0</ele><time>2026-04-25T14:56:34Z</time></trkpt><trkpt lat="45.453889151826324" lon="4.869598247362848"><ele>275.0</ele><time>2026-04-25T14:56:35Z</time></trkpt><trkpt lat="45.45397177006093" lon="4.86957249824274"><ele>275.8</ele><time>2026-04-25T14:56:36Z</time></trkpt><trkpt lat="45.45404175917704" lon="4.869555864668011"><ele>276.6</ele><time>2026-04-25T14:56:37Z</time></trkpt><trkpt lat="45.45413733843828" lon="4.869408223833739"><ele>277.4</ele><time>2026-04-25T14:56:39Z</time></trkpt><trkpt lat="45.45417358976148" lon="4.869267905185908"><ele>278.2</ele><time>2026-04-25T14:56:40Z</time></trkpt><trkpt lat="45.454242744049715" lon="4.869137958325614"><ele>279.0</ele><time>2026-04-25T14:56:41Z</time></trkpt><trkpt lat="45.454299968254375" lon="4.868992851968072"><ele>279.3333333333333</ele><time>2026-04-25T14:56:42Z</time></trkpt><trkpt lat="45.454390176871726" lon="4.868828176925422"><ele>279.66666666666663</ele><time>2026-04-25T14:56:43Z</time></trkpt><trkpt lat="45.45447488208918" lon="4.868629035087746"><ele>280.0</ele><time>2026-04-25T14:56:44Z</time></trkpt><trkpt lat="45.45455959645462" lon="4.868428888607094"><ele>281.5</ele><time>2026-04-25T14:56:45Z</time></trkpt><trkpt lat="45.45462708861164" lon="4.868239539961884"><ele>283.0</ele><time>2026-04-25T14:56:46Z</time></trkpt><trkpt lat="45.45467168758897" lon="4.86807516036987"><ele>284.5</ele><time>2026-04-25T14:56:47Z</time></trkpt><trkpt lat="45.454692132414074" lon="4.867928918852645"><ele>286.0</ele><time>2026-04-25T14:56:48Z</time></trkpt><trkpt lat="45.4546906057275" lon="4.867802353002007"><ele>286.0</ele><time>2026-04-25T14:56:49Z</time></trkpt><trkpt lat="45.4546916874585" lon="4.867646477780765"><ele>286.0</ele><time>2026-04-25T14:56:51Z</time></trkpt><trkpt lat="45.454724586412475" lon="4.867527205203872"><ele>286.0</ele><time>2026-04-25T14:56:53.001Z</time></trkpt><trkpt lat="45.454814545485405" lon="4.8675720651525"><ele>286.0</ele><time>2026-04-25T14:56:55.001Z</time></trkpt><trkpt lat="45.45486855142468" lon="4.867618847094701"><ele>286.0</ele><time>2026-04-25T14:56:56.001Z</time></trkpt><trkpt lat="45.45493150438814" lon="4.867650471830856"><ele>286.0</ele><time>2026-04-25T14:56:57.001Z</time></trkpt><trkpt lat="45.455015398304894" lon="4.867721919004283"><ele>286.0</ele><time>2026-04-25T14:56:58.001Z</time></trkpt><trkpt lat="45.455124731129715" lon="4.867772456824518"><ele>286.0</ele><time>2026-04-25T14:56:59.001Z</time></trkpt><trkpt lat="45.455234524117316" lon="4.8678011865767425"><ele>286.0</ele><time>2026-04-25T14:57:00.001Z</time></trkpt><trkpt lat="45.45536042158566" lon="4.867836122065973"><ele>286.0</ele><time>2026-04-25T14:57:01.001Z</time></trkpt><trkpt lat="45.45550774023786" lon="4.867890184860215"><ele>288.3333333333333</ele><time>2026-04-25T14:57:02.001Z</time></trkpt><trkpt lat="45.45565769398541" lon="4.867924233182832"><ele>290.6666666666667</ele><time>2026-04-25T14:57:03.001Z</time></trkpt><trkpt lat="45.45578818864802" lon="4.867935040733903"><ele>293.0</ele><time>2026-04-25T14:57:04.001Z</time></trkpt><trkpt lat="45.455955327890905" lon="4.867909528763515"><ele>293.0</ele><time>2026-04-25T14:57:05.001Z</time></trkpt><trkpt lat="45.45610476898949" lon="4.86786088347564"><ele>293.0</ele><time>2026-04-25T14:57:06.001Z</time></trkpt><trkpt lat="45.45621673536505" lon="4.86782245864061"><ele>293.0</ele><time>2026-04-25T14:57:07.001Z</time></trkpt><trkpt lat="45.45631262446239" lon="4.867824182507846"><ele>293.0</ele><time>2026-04-25T14:57:08.001Z</time></trkpt><trkpt lat="45.45639217603491" lon="4.867820047203856"><ele>293.0</ele><time>2026-04-25T14:57:09.001Z</time></trkpt><trkpt lat="45.45647134229378" lon="4.867824827460881"><ele>293.4</ele><time>2026-04-25T14:57:10.001Z</time></trkpt><trkpt lat="45.45654004392655" lon="4.86784475841032"><ele>293.8</ele><time>2026-04-25T14:57:11.001Z</time></trkpt><trkpt lat="45.45661995467892" lon="4.868000707233214"><ele>294.2</ele><time>2026-04-25T14:57:13.001Z</time></trkpt><trkpt lat="45.456578516492115" lon="4.868161060979473"><ele>294.6</ele><time>2026-04-25T14:57:14.001Z</time></trkpt><trkpt lat="45.45654458657374" lon="4.86830519871728"><ele>295.0</ele><time>2026-04-25T14:57:15Z</time></trkpt><trkpt lat="45.45652053160021" lon="4.868408366082313"><ele>295.0</ele><time>2026-04-25T14:57:16Z</time></trkpt><trkpt lat="45.456501974539165" lon="4.868506970727809"><ele>295.0</ele><time>2026-04-25T14:57:17Z</time></trkpt><trkpt lat="45.45650429208802" lon="4.868610851138183"><ele>295.0</ele><time>2026-04-25T14:57:18Z</time></trkpt><trkpt lat="45.45652913893941" lon="4.8687352336905"><ele>295.0</ele><time>2026-04-25T14:57:19Z</time></trkpt><trkpt lat="45.45656015890074" lon="4.868883594704671"><ele>295.0</ele><time>2026-04-25T14:57:20Z</time></trkpt><trkpt lat="45.45659664900199" lon="4.869048920463686"><ele>295.0</ele><time>2026-04-25T14:57:21Z</time></trkpt><trkpt lat="45.456627261451644" lon="4.869175987023776"><ele>295.0</ele><time>2026-04-25T14:57:22Z</time></trkpt><trkpt lat="45.45664510422745" lon="4.869290896661287"><ele>295.0</ele><time>2026-04-25T14:57:23Z</time></trkpt><trkpt lat="45.45666558280799" lon="4.869403682202619"><ele>295.0</ele><time>2026-04-25T14:57:24Z</time></trkpt><trkpt lat="45.45668897249558" lon="4.869526203888661"><ele>295.0</ele><time>2026-04-25T14:57:25Z</time></trkpt><trkpt lat="45.45669817831052" lon="4.869649858938082"><ele>295.0</ele><time>2026-04-25T14:57:26Z</time></trkpt><trkpt lat="45.456708371008446" lon="4.869786047180299"><ele>294.75</ele><time>2026-04-25T14:57:27Z</time></trkpt><trkpt lat="45.4567027234905" lon="4.869945895278781"><ele>294.5</ele><time>2026-04-25T14:57:28Z</time></trkpt><trkpt lat="45.456702980402554" lon="4.8701424462480505"><ele>294.25</ele><time>2026-04-25T14:57:29Z</time></trkpt><trkpt lat="45.45670384729176" lon="4.870360712798276"><ele>294.0</ele><time>2026-04-25T14:57:30Z</time></trkpt><trkpt lat="45.456728514920876" lon="4.870537728039525"><ele>294.0</ele><time>2026-04-25T14:57:31Z</time></trkpt><trkpt lat="45.456729837386206" lon="4.870709827184591"><ele>294.0</ele><time>2026-04-25T14:57:32Z</time></trkpt><trkpt lat="45.45673931548162" lon="4.8708264583724326"><ele>294.0</ele><time>2026-04-25T14:57:33Z</time></trkpt><trkpt lat="45.45673219840234" lon="4.870968726351133"><ele>294.0</ele><time>2026-04-25T14:57:35Z</time></trkpt><trkpt lat="45.456601866506546" lon="4.870910632717963"><ele>294.0</ele><time>2026-04-25T14:57:37Z</time></trkpt><trkpt lat="45.45652043160304" lon="4.8708926891043145"><ele>294.0</ele><time>2026-04-25T14:57:38Z</time></trkpt><trkpt lat="45.456417166640286" lon="4.870858952105749"><ele>294.0</ele><time>2026-04-25T14:57:39Z</time></trkpt><trkpt lat="45.4563236234542" lon="4.8708448219369425"><ele>294.0</ele><time>2026-04-25T14:57:40Z</time></trkpt><trkpt lat="45.45623938600343" lon="4.870848462021337"><ele>294.0</ele><time>2026-04-25T14:57:41Z</time></trkpt><trkpt lat="45.45616020014463" lon="4.870849618861761"><ele>294.0</ele><time>2026-04-25T14:57:42Z</time></trkpt><trkpt lat="45.4560801820508" lon="4.870850787859724"><ele>294.0</ele><time>2026-04-25T14:57:43Z</time></trkpt><trkpt lat="45.45597529974117" lon="4.870856505088735"><ele>292.4</ele><time>2026-04-25T14:57:44Z</time></trkpt><trkpt lat="45.455873743737655" lon="4.8708526676966"><ele>290.79999999999995</ele><time>2026-04-25T14:57:45Z</time></trkpt><trkpt lat="45.45575837424798" lon="4.870888752733968"><ele>289.20000000000005</ele><time>2026-04-25T14:57:47Z</time></trkpt><trkpt lat="45.45570602822207" lon="4.87099948544212"><ele>287.6</ele><time>2026-04-25T14:57:48Z</time></trkpt><trkpt lat="45.455696984792404" lon="4.871160037305022"><ele>286.0</ele><time>2026-04-25T14:57:49Z</time></trkpt><trkpt lat="45.455681781671366" lon="4.871259515035932"><ele>284.0</ele><time>2026-04-25T14:57:50Z</time></trkpt><trkpt lat="45.45566014074835" lon="4.871411194942815"><ele>284.0</ele><time>2026-04-25T14:57:52Z</time></trkpt><trkpt lat="45.455648049750714" lon="4.871502687829008"><ele>284.0</ele><time>2026-04-25T14:57:54Z</time></trkpt></trkseg></trk></gpx>